Observation data for Dozier on 10/17/2019      Previous  Date       Current Mesonet Observations  Soil Data  Daily Summary Page  Observations in Plain Language
KDO1 170500Z 20001KT 10/00 A3009 RMK A01 T009700-0  RH  051%=      5-min Rain = 0
KDO1 170501Z 19003KT 10/00 A3009 RMK A01 T00970000  RH  051%=      5-min Rain = 0
KDO1 170502Z 20002KT 10/00 A3009 RMK A01 T00980000  RH  051%=      5-min Rain = 0
KDO1 170503Z 21002KT 10/00 A3009 RMK A01 T009800-0  RH  051%=      5-min Rain = 0
KDO1 170504Z 21002KT 10/M00 A3009 RMK A01 T00981001  RH  050%=      5-min Rain = 0
KDO1 170505Z 22002KT 10/M00 A3009 RMK A01 T00971001  RH  050%=      5-min Rain = 0
KDO1 170506Z 24001KT 10/00 A3009 RMK A01 T009700-0  RH  051%=      5-min Rain = 0
KDO1 170507Z 25001KT 10/00 A3009 RMK A01 T009700-0  RH  051%=      5-min Rain = 0
KDO1 170508Z 26002KT 10/M00 A3009 RMK A01 T00951001  RH  051%=      5-min Rain = 0
KDO1 170509Z 25002KT 09/M00 A301 RMK A01 T00941001  RH  052%=      5-min Rain = 0
KDO1 170510Z 25002KT 09/00 A301 RMK A01 T009400-0  RH  052%=      5-min Rain = 0
KDO1 170511Z 24002KT 10/00 A301 RMK A01 T00960001  RH  051%=      5-min Rain = 0
KDO1 170512Z 24002KT 10/00 A301 RMK A01 T00970001  RH  051%=      5-min Rain = 0
KDO1 170513Z 24002KT 10/00 A301 RMK A01 T00980001  RH  051%=      5-min Rain = 0
KDO1 170514Z 24002KT 10/00 A301 RMK A01 T00990001  RH  050%=      5-min Rain = 0
KDO1 170515Z 24002KT 10/00 A301 RMK A01 T01000001  RH  050%=      5-min Rain = 0
KDO1 170516Z 23002KT 10/00 A301 RMK A01 T01000001  RH  050%=      5-min Rain = 0
KDO1 170517Z 22002KT 10/00 A301 RMK A01 T01000001  RH  050%=      5-min Rain = 0
KDO1 170518Z 22003KT 10/00 A301 RMK A01 T01000001  RH  050%=      5-min Rain = 0
KDO1 170519Z 22003KT 10/00 A301 RMK A01 T01000001  RH  050%=      5-min Rain = 0
KDO1 170520Z 22002KT 10/00 A301 RMK A01 T01000001  RH  050%=      5-min Rain = 0
KDO1 170521Z 21003KT 10/00 A301 RMK A01 T01000001  RH  050%=      5-min Rain = 0
KDO1 170522Z 19003KT 10/00 A301 RMK A01 T00990000  RH  050%=      5-min Rain = 0
KDO1 170523Z 20002KT 10/00 A301 RMK A01 T00980001  RH  051%=      5-min Rain = 0
KDO1 170524Z 20003KT 10/00 A3009 RMK A01 T00970000  RH  051%=      5-min Rain = 0
KDO1 170525Z 20003KT 10/00 A3009 RMK A01 T00960000  RH  051%=      5-min Rain = 0
KDO1 170526Z 19003KT 10/00 A3009 RMK A01 T00960000  RH  051%=      5-min Rain = 0
KDO1 170527Z 19003KT 10/00 A3009 RMK A01 T009500-0  RH  051%=      5-min Rain = 0
KDO1 170528Z 19004KT 09/00 A3009 RMK A01 T009400-0  RH  052%=      5-min Rain = 0
KDO1 170529Z 18003KT 09/00 A3009 RMK A01 T009400-0  RH  052%=      5-min Rain = 0
KDO1 170530Z 18002KT 09/00 A3009 RMK A01 T00930000  RH  052%=      5-min Rain = 0
KDO1 170531Z 18003KT 09/M00 A3009 RMK A01 T00921001  RH  052%=      5-min Rain = 0
KDO1 170532Z 19002KT 09/M00 A3009 RMK A01 T00901001  RH  053%=      5-min Rain = 0
KDO1 170533Z 19003KT 09/M00 A3009 RMK A01 T00891002  RH  053%=      5-min Rain = 0
KDO1 170534Z 19003KT 09/M00 A3009 RMK A01 T00881001  RH  053%=      5-min Rain = 0
KDO1 170535Z 19004KT 09/M00 A3009 RMK A01 T00891001  RH  053%=      5-min Rain = 0
KDO1 170536Z 19004KT 09/M00 A3009 RMK A01 T00901001  RH  053%=      5-min Rain = 0
KDO1 170537Z 19003KT 09/M00 A3009 RMK A01 T00901001  RH  053%=      5-min Rain = 0
KDO1 170538Z 19003KT 09/00 A3009 RMK A01 T009000-0  RH  053%=      5-min Rain = 0
KDO1 170539Z 19003KT 09/00 A3009 RMK A01 T009000-0  RH  053%=      5-min Rain = 0
KDO1 170540Z 19003KT 09/00 A3009 RMK A01 T009000-0  RH  053%=      5-min Rain = 0
KDO1 170541Z 19002KT 09/00 A3009 RMK A01 T00900001  RH  054%=      5-min Rain = 0
KDO1 170542Z 19002KT 09/00 A3009 RMK A01 T00890000  RH  054%=      5-min Rain = 0
KDO1 170543Z 20002KT 09/00 A3009 RMK A01 T008800-0  RH  054%=      5-min Rain = 0
KDO1 170544Z 20002KT 09/M00 A3009 RMK A01 T00881001  RH  054%=      5-min Rain = 0
KDO1 170545Z 19002KT 09/M00 A3009 RMK A01 T00871001  RH  054%=      5-min Rain = 0
KDO1 170546Z 20002KT 09/00 A3009 RMK A01 T008600-0  RH  055%=      5-min Rain = 0
KDO1 170547Z 19002KT 09/00 A3009 RMK A01 T00860000  RH  055%=      5-min Rain = 0
KDO1 170548Z 19002KT 09/00 A3009 RMK A01 T00860000  RH  055%=      5-min Rain = 0
KDO1 170549Z 19002KT 09/00 A3009 RMK A01 T00870000  RH  055%=      5-min Rain = 0
KDO1 170550Z 19002KT 09/00 A3009 RMK A01 T00880000  RH  054%=      5-min Rain = 0
KDO1 170551Z 19002KT 09/00 A3009 RMK A01 T00890000  RH  054%=      5-min Rain = 0
KDO1 170552Z 18002KT 09/00 A3009 RMK A01 T00900000  RH  054%=      5-min Rain = 0
KDO1 170553Z 19002KT 09/00 A3009 RMK A01 T00900001  RH  053%=      5-min Rain = 0
KDO1 170554Z 19002KT 09/00 A3009 RMK A01 T00900000  RH  053%=      5-min Rain = 0
KDO1 170555Z 19002KT 09/00 A3009 RMK A01 T00910001  RH  053%=      5-min Rain = 0
KDO1 170556Z 19003KT 09/00 A3009 RMK A01 T00910000  RH  053%=      5-min Rain = 0
KDO1 170557Z 19002KT 09/00 A3009 RMK A01 T00910000  RH  053%=      5-min Rain = 0
KDO1 170558Z 19002KT 09/00 A3009 RMK A01 T00910001  RH  053%=      5-min Rain = 0
KDO1 170559Z 19002KT 09/00 A3009 RMK A01 T00910001  RH  054%=      5-min Rain = 0
KDO1 170600Z 19002KT 09/00 A3009 RMK A01 T00900001  RH  054%=      5-min Rain = 0
KDO1 170601Z 20002KT 09/00 A3009 RMK A01 T00890001  RH  054%=      5-min Rain = 0
KDO1 170602Z 21002KT 09/00 A3009 RMK A01 T00890002  RH  054%=      5-min Rain = 0
KDO1 170603Z 22002KT 09/00 A3009 RMK A01 T00880001  RH  054%=      5-min Rain = 0
KDO1 170604Z 22002KT 09/00 A3009 RMK A01 T00870001  RH  055%=      5-min Rain = 0
KDO1 170605Z 22002KT 09/00 A3009 RMK A01 T00860000  RH  055%=      5-min Rain = 0
KDO1 170606Z 22002KT 09/00 A3009 RMK A01 T00850000  RH  055%=      5-min Rain = 0
KDO1 170607Z 21002KT 08/00 A3009 RMK A01 T00840000  RH  056%=      5-min Rain = 0
KDO1 170608Z 21002KT 08/00 A3009 RMK A01 T00830001  RH  056%=      5-min Rain = 0
KDO1 170609Z 20002KT 08/00 A3009 RMK A01 T00830001  RH  056%=      5-min Rain = 0
KDO1 170610Z 20003KT 08/00 A3009 RMK A01 T00830001  RH  056%=      5-min Rain = 0
KDO1 170611Z 20003KT 09/00 A3009 RMK A01 T00850002  RH  056%=      5-min Rain = 0
KDO1 170612Z 19003KT 09/00 A3009 RMK A01 T00860002  RH  055%=      5-min Rain = 0
KDO1 170613Z 19003KT 09/00 A3009 RMK A01 T00880002  RH  055%=      5-min Rain = 0
KDO1 170614Z 19003KT 09/00 A3009 RMK A01 T00890002  RH  054%=      5-min Rain = 0
KDO1 170615Z 19003KT 09/00 A3009 RMK A01 T00890001  RH  054%=      5-min Rain = 0
KDO1 170616Z 19003KT 09/00 A3009 RMK A01 T00900001  RH  054%=      5-min Rain = 0
KDO1 170617Z 19002KT 09/00 A3009 RMK A01 T00900001  RH  054%=      5-min Rain = 0
KDO1 170618Z 19002KT 09/00 A3009 RMK A01 T00890000  RH  054%=      5-min Rain = 0
KDO1 170619Z 19002KT 09/00 A3009 RMK A01 T008900-0  RH  054%=      5-min Rain = 0
KDO1 170620Z 19002KT 09/00 A3009 RMK A01 T00880001  RH  054%=      5-min Rain = 0
KDO1 170621Z 19002KT 09/00 A3009 RMK A01 T00870001  RH  055%=      5-min Rain = 0
KDO1 170622Z 20001KT 09/00 A3009 RMK A01 T00860000  RH  055%=      5-min Rain = 0
KDO1 170623Z 20002KT 09/00 A3009 RMK A01 T00850000  RH  055%=      5-min Rain = 0
KDO1 170624Z 19002KT 09/00 A3009 RMK A01 T00850001  RH  055%=      5-min Rain = 0
KDO1 170625Z 19003KT 08/00 A3009 RMK A01 T00840000  RH  056%=      5-min Rain = 0
KDO1 170626Z 19002KT 08/00 A3009 RMK A01 T00840000  RH  056%=      5-min Rain = 0
KDO1 170627Z 20002KT 08/00 A3009 RMK A01 T00840001  RH  056%=      5-min Rain = 0
KDO1 170628Z 19002KT 08/00 A3009 RMK A01 T00840001  RH  056%=      5-min Rain = 0
KDO1 170629Z 19003KT 08/00 A3009 RMK A01 T00840001  RH  056%=      5-min Rain = 0
KDO1 170630Z 19002KT 09/00 A3009 RMK A01 T00850001  RH  055%=      5-min Rain = 0
KDO1 170631Z 18002KT 09/00 A3009 RMK A01 T00850001  RH  055%=      5-min Rain = 0
KDO1 170632Z 19002KT 09/00 A3009 RMK A01 T00850000  RH  055%=      5-min Rain = 0
KDO1 170633Z 18002KT 08/00 A3009 RMK A01 T00840000  RH  055%=      5-min Rain = 0
KDO1 170634Z 19002KT 08/00 A3009 RMK A01 T00840000  RH  056%=      5-min Rain = 0
KDO1 170635Z 18002KT 08/00 A3009 RMK A01 T008400-0  RH  055%=      5-min Rain = 0
KDO1 170703Z 00000KT 06/M00 A3009 RMK A01 T00631002  RH  063%=      5-min Rain = 0
KDO1 170704Z 00000KT 06/M00 A3009 RMK A01 T00631001  RH  063%=      5-min Rain = 0
KDO1 170711Z 31001KT 06/M00 A3009 RMK A01 T00621001  RH  064%=      5-min Rain = 0
KDO1 170712Z 31001KT 06/M00 A3009 RMK A01 T00631001  RH  064%=      5-min Rain = 0
KDO1 170713Z 31001KT 07/00 A3009 RMK A01 T006500-0  RH  063%=      5-min Rain = 0
KDO1 170714Z 30001KT 07/00 A3009 RMK A01 T006700-0  RH  062%=      5-min Rain = 0
KDO1 170715Z 30001KT 07/00 A3009 RMK A01 T006900-0  RH  062%=      5-min Rain = 0
KDO1 170716Z 30002KT 07/M00 A3009 RMK A01 T00701001  RH  061%=      5-min Rain = 0
KDO1 170717Z 30001KT 07/M00 A3009 RMK A01 T00701001  RH  061%=      5-min Rain = 0
KDO1 170718Z 29001KT 07/M00 A3009 RMK A01 T00691001  RH  061%=      5-min Rain = 0
KDO1 170719Z 29001KT 07/M00 A3009 RMK A01 T00681001  RH  061%=      5-min Rain = 0
KDO1 170720Z 27001KT 07/M00 A3009 RMK A01 T00681001  RH  061%=      5-min Rain = 0
KDO1 170721Z 26001KT 07/M00 A3009 RMK A01 T00681001  RH  061%=      5-min Rain = 0
KDO1 170722Z 24001KT 07/M00 A3009 RMK A01 T00691001  RH  061%=      5-min Rain = 0
KDO1 170723Z 23001KT 07/M00 A3009 RMK A01 T00701001  RH  061%=      5-min Rain = 0
KDO1 170724Z 22001KT 07/M00 A3009 RMK A01 T00701001  RH  060%=      5-min Rain = 0
KDO1 170725Z 21001KT 07/M00 A3008 RMK A01 T00711001  RH  060%=      5-min Rain = 0
KDO1 170726Z 21001KT 07/M00 A3008 RMK A01 T00721001  RH  060%=      5-min Rain = 0
KDO1 170727Z 21001KT 07/M00 A3008 RMK A01 T00711001  RH  060%=      5-min Rain = 0
KDO1 170728Z 21001KT 07/M00 A3008 RMK A01 T00721001  RH  060%=      5-min Rain = 0
KDO1 170729Z 20001KT 07/M00 A3008 RMK A01 T00711001  RH  060%=      5-min Rain = 0
KDO1 170730Z 19001KT 07/M00 A3008 RMK A01 T00711001  RH  060%=      5-min Rain = 0
KDO1 170731Z 19001KT 07/M00 A3008 RMK A01 T00711001  RH  060%=      5-min Rain = 0
KDO1 170732Z 19001KT 07/M00 A3008 RMK A01 T00721001  RH  060%=      5-min Rain = 0
KDO1 170733Z 19001KT 07/M00 A3008 RMK A01 T00721001  RH  060%=      5-min Rain = 0
KDO1 170734Z 20001KT 07/M00 A3008 RMK A01 T00711002  RH  060%=      5-min Rain = 0
KDO1 170735Z 19001KT 07/M00 A3008 RMK A01 T00691001  RH  061%=      5-min Rain = 0
KDO1 170736Z 19002KT 07/M00 A3008 RMK A01 T00681002  RH  061%=      5-min Rain = 0
KDO1 170737Z 20002KT 07/M00 A3008 RMK A01 T00671002  RH  061%=      5-min Rain = 0
KDO1 170738Z 21001KT 07/M00 A3008 RMK A01 T00661002  RH  062%=      5-min Rain = 0
KDO1 170739Z 22001KT 07/M00 A3008 RMK A01 T00651002  RH  062%=      5-min Rain = 0
KDO1 170740Z 22001KT 06/M00 A3008 RMK A01 T00641001  RH  063%=      5-min Rain = 0
KDO1 170741Z 22001KT 06/M00 A3008 RMK A01 T00641001  RH  063%=      5-min Rain = 0
KDO1 170742Z 22001KT 06/M00 A3008 RMK A01 T00641001  RH  063%=      5-min Rain = 0
KDO1 170743Z 22001KT 06/M00 A3008 RMK A01 T00631001  RH  063%=      5-min Rain = 0
KDO1 170744Z 22001KT 06/M00 A3008 RMK A01 T00621001  RH  064%=      5-min Rain = 0
KDO1 170745Z 22001KT 06/M00 A3008 RMK A01 T00621001  RH  064%=      5-min Rain = 0
KDO1 170746Z 22001KT 06/00 A3008 RMK A01 T006200-0  RH  064%=      5-min Rain = 0
KDO1 170747Z 22001KT 06/00 A3008 RMK A01 T00630000  RH  064%=      5-min Rain = 0
KDO1 170748Z 22001KT 06/00 A3008 RMK A01 T00640000  RH  064%=      5-min Rain = 0
KDO1 170749Z 22001KT 07/00 A3008 RMK A01 T00650000  RH  063%=      5-min Rain = 0
KDO1 170750Z 24001KT 07/00 A3008 RMK A01 T00650000  RH  063%=      5-min Rain = 0
KDO1 170751Z 24001KT 07/00 A3008 RMK A01 T006500-0  RH  063%=      5-min Rain = 0
KDO1 170752Z 24001KT 07/M00 A3008 RMK A01 T00651001  RH  063%=      5-min Rain = 0
KDO1 170753Z 25000KT 06/M00 A3008 RMK A01 T00641002  RH  063%=      5-min Rain = 0
KDO1 170754Z 00000KT 06/M00 A3008 RMK A01 T00621003  RH  063%=      5-min Rain = 0
KDO1 170755Z 00000KT 06/M00 A3008 RMK A01 T00611002  RH  064%=      5-min Rain = 0
KDO1 170756Z 23000KT 06/M00 A3008 RMK A01 T00601002  RH  064%=      5-min Rain = 0
KDO1 170757Z 21001KT 06/M00 A3008 RMK A01 T00591002  RH  065%=      5-min Rain = 0
KDO1 170758Z 20000KT 06/M00 A3008 RMK A01 T00591002  RH  065%=      5-min Rain = 0
KDO1 170759Z 00000KT 06/M00 A3008 RMK A01 T00581002  RH  065%=      5-min Rain = 0
KDO1 170800Z 00000KT 06/M00 A3008 RMK A01 T00581002  RH  065%=      5-min Rain = 0
KDO1 170801Z 00000KT 06/M00 A3008 RMK A01 T00571002  RH  066%=      5-min Rain = 0
KDO1 170802Z 00000KT 06/M00 A3008 RMK A01 T00571001  RH  066%=      5-min Rain = 0
KDO1 170803Z 00000KT 06/M00 A3008 RMK A01 T00571002  RH  066%=      5-min Rain = 0
KDO1 170804Z 21000KT 06/M00 A3008 RMK A01 T00571002  RH  066%=      5-min Rain = 0
KDO1 170805Z 21001KT 06/M00 A3008 RMK A01 T00571002  RH  066%=      5-min Rain = 0
KDO1 170806Z 20000KT 06/M00 A3008 RMK A01 T00571002  RH  066%=      5-min Rain = 0
KDO1 170807Z 20000KT 06/M00 A3008 RMK A01 T00571002  RH  066%=      5-min Rain = 0
KDO1 170808Z 20000KT 06/M00 A3008 RMK A01 T00571002  RH  066%=      5-min Rain = 0
KDO1 170809Z 19000KT 06/M00 A3008 RMK A01 T00561002  RH  066%=      5-min Rain = 0
KDO1 170810Z 19000KT 06/M00 A3008 RMK A01 T00561003  RH  066%=      5-min Rain = 0
KDO1 170811Z 00000KT 06/M00 A3008 RMK A01 T00561002  RH  066%=      5-min Rain = 0
KDO1 170812Z 00000KT 06/M00 A3007 RMK A01 T00551003  RH  066%=      5-min Rain = 0
KDO1 170813Z 00000KT 06/M00 A3007 RMK A01 T00551003  RH  066%=      5-min Rain = 0
KDO1 170814Z 00000KT 05/M00 A3007 RMK A01 T00541003  RH  066%=      5-min Rain = 0
KDO1 170815Z 00000KT 05/M00 A3007 RMK A01 T00531004  RH  067%=      5-min Rain = 0
KDO1 170816Z 00000KT 05/M00 A3007 RMK A01 T00521004  RH  067%=      5-min Rain = 0
KDO1 170817Z 00000KT 05/M00 A3007 RMK A01 T00511004  RH  067%=      5-min Rain = 0
KDO1 170818Z 00000KT 05/M00 A3007 RMK A01 T00511004  RH  068%=      5-min Rain = 0
KDO1 170819Z 00000KT 05/M00 A3007 RMK A01 T00511004  RH  068%=      5-min Rain = 0
KDO1 170820Z 00000KT 05/M00 A3007 RMK A01 T00501003  RH  068%=      5-min Rain = 0
KDO1 170821Z 00000KT 05/M00 A3007 RMK A01 T00511003  RH  068%=      5-min Rain = 0
KDO1 170822Z 00000KT 05/M00 A3007 RMK A01 T00501003  RH  068%=      5-min Rain = 0
KDO1 170823Z 00000KT 05/M00 A3007 RMK A01 T00511002  RH  068%=      5-min Rain = 0
KDO1 170824Z 00000KT 05/M00 A3007 RMK A01 T00521002  RH  068%=      5-min Rain = 0
KDO1 170825Z 00000KT 05/M00 A3007 RMK A01 T00521003  RH  068%=      5-min Rain = 0
KDO1 170826Z 00000KT 05/M00 A3007 RMK A01 T00521002  RH  068%=      5-min Rain = 0
KDO1 170827Z 00000KT 05/M00 A3007 RMK A01 T00531002  RH  068%=      5-min Rain = 0
KDO1 170828Z 00000KT 05/M00 A3007 RMK A01 T00531002  RH  068%=      5-min Rain = 0
KDO1 170829Z 00000KT 05/M00 A3007 RMK A01 T00541001  RH  068%=      5-min Rain = 0
KDO1 170830Z 03000KT 05/M00 A3007 RMK A01 T00541002  RH  067%=      5-min Rain = 0
KDO1 170831Z 02001KT 06/M00 A3007 RMK A01 T00551001  RH  067%=      5-min Rain = 0
KDO1 170832Z 02001KT 06/M00 A3007 RMK A01 T00561001  RH  067%=      5-min Rain = 0
KDO1 170833Z 02001KT 06/M00 A3007 RMK A01 T00581001  RH  066%=      5-min Rain = 0
KDO1 170834Z 02001KT 06/M00 A3007 RMK A01 T00581001  RH  066%=      5-min Rain = 0
KDO1 170835Z 02000KT 06/M00 A3007 RMK A01 T00591001  RH  066%=      5-min Rain = 0
KDO1 170836Z 01000KT 06/M00 A3007 RMK A01 T00581001  RH  066%=      5-min Rain = 0
KDO1 170837Z 00000KT 06/M00 A3007 RMK A01 T00571001  RH  066%=      5-min Rain = 0
KDO1 170838Z 00000KT 06/M00 A3007 RMK A01 T00561002  RH  066%=      5-min Rain = 0
KDO1 170839Z 00000KT 06/M00 A3007 RMK A01 T00551002  RH  067%=      5-min Rain = 0
KDO1 170840Z 00000KT 05/M00 A3007 RMK A01 T00541002  RH  067%=      5-min Rain = 0
KDO1 170841Z 00000KT 05/M00 A3007 RMK A01 T00531002  RH  067%=      5-min Rain = 0
KDO1 170842Z 00000KT 05/M00 A3007 RMK A01 T00531002  RH  068%=      5-min Rain = 0
KDO1 170843Z 00000KT 05/M00 A3007 RMK A01 T00521002  RH  068%=      5-min Rain = 0
KDO1 170844Z 21000KT 05/M00 A3007 RMK A01 T00521002  RH  068%=      5-min Rain = 0
KDO1 170845Z 20000KT 05/M00 A3007 RMK A01 T00521002  RH  068%=      5-min Rain = 0
KDO1 170846Z 21001KT 05/M00 A3007 RMK A01 T00521002  RH  068%=      5-min Rain = 0
KDO1 170847Z 20001KT 05/M00 A3007 RMK A01 T00521002  RH  068%=      5-min Rain = 0
KDO1 170848Z 21001KT 05/M00 A3007 RMK A01 T00511002  RH  068%=      5-min Rain = 0
KDO1 170849Z 21001KT 05/M00 A3007 RMK A01 T00511002  RH  069%=      5-min Rain = 0
KDO1 170850Z 20000KT 05/M00 A3007 RMK A01 T00511002  RH  069%=      5-min Rain = 0
KDO1 170851Z 18000KT 05/M00 A3006 RMK A01 T00521001  RH  068%=      5-min Rain = 0
KDO1 170852Z 18000KT 06/00 A3006 RMK A01 T005500-0  RH  067%=      5-min Rain = 0
KDO1 170853Z 17000KT 06/00 A3006 RMK A01 T00580000  RH  066%=      5-min Rain = 0
KDO1 170854Z 00000KT 06/00 A3006 RMK A01 T00600001  RH  066%=      5-min Rain = 0
KDO1 170855Z 00000KT 06/00 A3006 RMK A01 T00620001  RH  065%=      5-min Rain = 0
KDO1 170856Z 21000KT 06/00 A3006 RMK A01 T00630001  RH  065%=      5-min Rain = 0
KDO1 170857Z 00000KT 06/00 A3006 RMK A01 T00630001  RH  064%=      5-min Rain = 0
KDO1 170858Z 00000KT 06/00 A3006 RMK A01 T00640000  RH  064%=      5-min Rain = 0
KDO1 170859Z 00000KT 06/00 A3006 RMK A01 T00640000  RH  064%=      5-min Rain = 0
KDO1 170900Z 00000KT 07/00 A3006 RMK A01 T00650000  RH  063%=      5-min Rain = 0
KDO1 170901Z 00000KT 07/00 A3006 RMK A01 T00660001  RH  063%=      5-min Rain = 0
KDO1 170902Z 00000KT 07/00 A3006 RMK A01 T00660001  RH  063%=      5-min Rain = 0
KDO1 170903Z 00000KT 07/00 A3006 RMK A01 T006600-0  RH  063%=      5-min Rain = 0
KDO1 170904Z 00000KT 06/M00 A3006 RMK A01 T00621001  RH  064%=      5-min Rain = 0
KDO1 170905Z 00000KT 06/M00 A3006 RMK A01 T00601002  RH  065%=      5-min Rain = 0
KDO1 170906Z 30001KT 06/M00 A3006 RMK A01 T00571003  RH  066%=      5-min Rain = 0
KDO1 170907Z 29001KT 05/M00 A3006 RMK A01 T00541003  RH  067%=      5-min Rain = 0
KDO1 170908Z 27001KT 05/M00 A3006 RMK A01 T00531003  RH  067%=      5-min Rain = 0
KDO1 170909Z 27001KT 05/M00 A3006 RMK A01 T00521003  RH  068%=      5-min Rain = 0
KDO1 170910Z 26001KT 05/M00 A3006 RMK A01 T00511003  RH  068%=      5-min Rain = 0
KDO1 170911Z 26001KT 05/M00 A3006 RMK A01 T00511002  RH  068%=      5-min Rain = 0
KDO1 170912Z 28001KT 05/M00 A3006 RMK A01 T00511003  RH  068%=      5-min Rain = 0
KDO1 170913Z 26001KT 05/M00 A3006 RMK A01 T00491004  RH  069%=      5-min Rain = 0
KDO1 170914Z 25001KT 05/M00 A3006 RMK A01 T00481004  RH  069%=      5-min Rain = 0
KDO1 170915Z 23000KT 05/M00 A3006 RMK A01 T00471003  RH  070%=      5-min Rain = 0
KDO1 170916Z 22001KT 05/M00 A3006 RMK A01 T00491002  RH  070%=      5-min Rain = 0
KDO1 170917Z 22001KT 05/00 A3006 RMK A01 T00530000  RH  069%=      5-min Rain = 0
KDO1 170918Z 22001KT 06/M00 A3006 RMK A01 T00551001  RH  067%=      5-min Rain = 0
KDO1 170919Z 21001KT 06/M00 A3006 RMK A01 T00551001  RH  067%=      5-min Rain = 0
KDO1 170920Z 19001KT 06/M00 A3006 RMK A01 T00551001  RH  067%=      5-min Rain = 0
KDO1 170921Z 20001KT 06/M00 A3005 RMK A01 T00551001  RH  067%=      5-min Rain = 0
KDO1 170922Z 22001KT 06/00 A3005 RMK A01 T005600-0  RH  067%=      5-min Rain = 0
KDO1 170923Z 22001KT 06/M00 A3005 RMK A01 T00561001  RH  066%=      5-min Rain = 0
KDO1 170924Z 20001KT 06/M00 A3005 RMK A01 T00561002  RH  066%=      5-min Rain = 0
KDO1 170925Z 20000KT 06/M00 A3005 RMK A01 T00551003  RH  066%=      5-min Rain = 0
KDO1 170926Z 19001KT 05/M00 A3005 RMK A01 T00531002  RH  067%=      5-min Rain = 0
KDO1 170927Z 19001KT 05/M00 A3005 RMK A01 T00521003  RH  068%=      5-min Rain = 0
KDO1 170928Z 16001KT 05/M00 A3005 RMK A01 T00511003  RH  068%=      5-min Rain = 0
KDO1 170929Z 16000KT 05/M00 A3005 RMK A01 T00511003  RH  068%=      5-min Rain = 0
KDO1 170930Z 00000KT 05/M00 A3005 RMK A01 T00511002  RH  069%=      5-min Rain = 0
KDO1 170931Z 16001KT 05/M00 A3005 RMK A01 T00501002  RH  069%=      5-min Rain = 0
KDO1 170932Z 16001KT 05/M00 A3005 RMK A01 T00501002  RH  069%=      5-min Rain = 0
KDO1 170933Z 17002KT 05/M00 A3005 RMK A01 T00511001  RH  069%=      5-min Rain = 0
KDO1 170934Z 15001KT 05/M00 A3005 RMK A01 T00511001  RH  069%=      5-min Rain = 0
KDO1 170935Z 17002KT 05/M00 A3005 RMK A01 T00511002  RH  069%=      5-min Rain = 0
KDO1 170936Z 19001KT 05/M00 A3005 RMK A01 T00521001  RH  068%=      5-min Rain = 0
KDO1 170937Z 19001KT 05/M00 A3005 RMK A01 T00531002  RH  068%=      5-min Rain = 0
KDO1 170938Z 20002KT 05/M00 A3005 RMK A01 T00531002  RH  068%=      5-min Rain = 0
KDO1 170939Z 19002KT 05/M00 A3005 RMK A01 T00521002  RH  068%=      5-min Rain = 0
KDO1 170940Z 19002KT 05/M00 A3005 RMK A01 T00541001  RH  068%=      5-min Rain = 0
KDO1 170941Z 18002KT 05/M00 A3005 RMK A01 T00541002  RH  067%=      5-min Rain = 0
KDO1 170942Z 17002KT 05/M00 A3005 RMK A01 T00541002  RH  067%=      5-min Rain = 0
KDO1 170943Z 17002KT 06/M00 A3005 RMK A01 T00551001  RH  067%=      5-min Rain = 0
KDO1 170944Z 16002KT 06/M00 A3005 RMK A01 T00561001  RH  066%=      5-min Rain = 0
KDO1 170945Z 16002KT 06/M00 A3005 RMK A01 T00571001  RH  066%=      5-min Rain = 0
KDO1 170946Z 16002KT 06/M00 A3005 RMK A01 T00571001  RH  066%=      5-min Rain = 0
KDO1 170947Z 15002KT 06/M00 A3005 RMK A01 T00571002  RH  066%=      5-min Rain = 0
KDO1 170948Z 16001KT 06/M00 A3005 RMK A01 T00571002  RH  066%=      5-min Rain = 0
KDO1 170949Z 16001KT 06/M00 A3005 RMK A01 T00571002  RH  066%=      5-min Rain = 0
KDO1 170950Z 16001KT 06/M00 A3005 RMK A01 T00561003  RH  066%=      5-min Rain = 0
KDO1 170951Z 17001KT 06/M00 A3005 RMK A01 T00551003  RH  066%=      5-min Rain = 0
KDO1 170952Z 17000KT 05/M00 A3005 RMK A01 T00541003  RH  067%=      5-min Rain = 0
KDO1 170953Z 16000KT 05/M00 A3005 RMK A01 T00531002  RH  067%=      5-min Rain = 0
KDO1 170954Z 00000KT 05/M00 A3005 RMK A01 T00511004  RH  068%=      5-min Rain = 0
KDO1 170955Z 19000KT 05/M00 A3005 RMK A01 T00501003  RH  068%=      5-min Rain = 0
KDO1 170956Z 19000KT 05/M00 A3005 RMK A01 T00491003  RH  069%=      5-min Rain = 0
KDO1 170957Z 19001KT 05/M00 A3005 RMK A01 T00481003  RH  070%=      5-min Rain = 0
KDO1 170958Z 19000KT 05/M00 A3005 RMK A01 T00471003  RH  070%=      5-min Rain = 0
KDO1 170959Z 20001KT 05/M00 A3005 RMK A01 T00471003  RH  070%=      5-min Rain = 0
KDO1 171000Z 21001KT 05/M00 A3005 RMK A01 T00471003  RH  070%=      5-min Rain = 0
KDO1 171001Z 21001KT 05/M00 A3005 RMK A01 T00481002  RH  070%=      5-min Rain = 0
KDO1 171002Z 22001KT 05/M00 A3005 RMK A01 T00491001  RH  070%=      5-min Rain = 0
KDO1 171003Z 22001KT 05/M00 A3005 RMK A01 T00491001  RH  070%=      5-min Rain = 0
KDO1 171004Z 22001KT 05/M00 A3005 RMK A01 T00491001  RH  070%=      5-min Rain = 0
KDO1 171005Z 22001KT 05/M00 A3005 RMK A01 T00491001  RH  070%=      5-min Rain = 0
KDO1 171006Z 21002KT 05/M00 A3005 RMK A01 T00491001  RH  070%=      5-min Rain = 0
KDO1 171007Z 20002KT 05/M00 A3005 RMK A01 T00491001  RH  070%=      5-min Rain = 0
KDO1 171008Z 20002KT 05/M00 A3005 RMK A01 T00491001  RH  070%=      5-min Rain = 0
KDO1 171009Z 21002KT 05/00 A3005 RMK A01 T005000-0  RH  070%=      5-min Rain = 0
KDO1 171010Z 21002KT 05/00 A3005 RMK A01 T00510001  RH  070%=      5-min Rain = 0
KDO1 171011Z 21002KT 05/00 A3005 RMK A01 T00530001  RH  069%=      5-min Rain = 0
KDO1 171012Z 21001KT 05/00 A3005 RMK A01 T00530000  RH  069%=      5-min Rain = 0
KDO1 171013Z 22002KT 05/M00 A3004 RMK A01 T00531001  RH  068%=      5-min Rain = 0
KDO1 171014Z 21002KT 05/M00 A3004 RMK A01 T00531001  RH  068%=      5-min Rain = 0
KDO1 171015Z 21002KT 05/M00 A3004 RMK A01 T00531001  RH  068%=      5-min Rain = 0
KDO1 171016Z 21002KT 05/00 A3004 RMK A01 T005300-0  RH  068%=      5-min Rain = 0
KDO1 171017Z 21002KT 05/00 A3004 RMK A01 T005300-0  RH  068%=      5-min Rain = 0
KDO1 171018Z 19002KT 05/M00 A3005 RMK A01 T00531001  RH  068%=      5-min Rain = 0
KDO1 171019Z 19002KT 05/00 A3005 RMK A01 T005400-0  RH  068%=      5-min Rain = 0
KDO1 171020Z 19002KT 05/M00 A3005 RMK A01 T00521003  RH  068%=      5-min Rain = 0
KDO1 171021Z 19002KT 05/M00 A3005 RMK A01 T00491003  RH  069%=      5-min Rain = 0
KDO1 171022Z 19002KT 05/M00 A3005 RMK A01 T00471004  RH  069%=      5-min Rain = 0
KDO1 171023Z 20002KT 05/M00 A3004 RMK A01 T00451004  RH  070%=      5-min Rain = 0
KDO1 171024Z 20002KT 04/M00 A3004 RMK A01 T00441004  RH  071%=      5-min Rain = 0
KDO1 171025Z 20002KT 04/M01 A3004 RMK A01 T00421006  RH  071%=      5-min Rain = 0
KDO1 171026Z 21001KT 04/M01 A3004 RMK A01 T00411006  RH  072%=      5-min Rain = 0
KDO1 171027Z 21001KT 04/M00 A3004 RMK A01 T00401004  RH  073%=      5-min Rain = 0
KDO1 171028Z 20002KT 04/M00 A3004 RMK A01 T00391004  RH  073%=      5-min Rain = 0
KDO1 171029Z 20001KT 04/M00 A3004 RMK A01 T00391004  RH  073%=      5-min Rain = 0
KDO1 171030Z 20001KT 04/M00 A3004 RMK A01 T00391004  RH  074%=      5-min Rain = 0
KDO1 171031Z 20002KT 04/M00 A3004 RMK A01 T00381003  RH  074%=      5-min Rain = 0
KDO1 171032Z 20002KT 04/M00 A3004 RMK A01 T00391003  RH  074%=      5-min Rain = 0
KDO1 171033Z 20002KT 04/M00 A3004 RMK A01 T00391003  RH  074%=      5-min Rain = 0
KDO1 171034Z 20002KT 04/M00 A3004 RMK A01 T00391003  RH  074%=      5-min Rain = 0
KDO1 171035Z 20002KT 04/M00 A3004 RMK A01 T00391003  RH  074%=      5-min Rain = 0
KDO1 171036Z 21002KT 04/M00 A3004 RMK A01 T00391003  RH  074%=      5-min Rain = 0
KDO1 171037Z 21001KT 04/M00 A3004 RMK A01 T00401002  RH  074%=      5-min Rain = 0
KDO1 171038Z 21001KT 04/M00 A3004 RMK A01 T00411002  RH  074%=      5-min Rain = 0
KDO1 171039Z 20001KT 04/M00 A3004 RMK A01 T00421002  RH  073%=      5-min Rain = 0
KDO1 171040Z 19001KT 04/M00 A3004 RMK A01 T00421002  RH  073%=      5-min Rain = 0
KDO1 171041Z 19000KT 04/M00 A3004 RMK A01 T00431002  RH  073%=      5-min Rain = 0
KDO1 171042Z 00000KT 04/M00 A3004 RMK A01 T00441002  RH  072%=      5-min Rain = 0
KDO1 171043Z 00000KT 04/M00 A3004 RMK A01 T00441002  RH  072%=      5-min Rain = 0
KDO1 171044Z 00000KT 04/M00 A3004 RMK A01 T00441001  RH  073%=      5-min Rain = 0
KDO1 171045Z 00000KT 04/M00 A3004 RMK A01 T00441001  RH  072%=      5-min Rain = 0
KDO1 171046Z 00000KT 05/M00 A3004 RMK A01 T00451001  RH  072%=      5-min Rain = 0
KDO1 171047Z 00000KT 05/M00 A3004 RMK A01 T00451001  RH  072%=      5-min Rain = 0
KDO1 171048Z 00000KT 05/00 A3004 RMK A01 T004600-0  RH  072%=      5-min Rain = 0
KDO1 171049Z 00000KT 05/M00 A3004 RMK A01 T00461001  RH  071%=      5-min Rain = 0
KDO1 171050Z 00000KT 04/M00 A3004 RMK A01 T00441003  RH  071%=      5-min Rain = 0
KDO1 171051Z 00000KT 04/M00 A3004 RMK A01 T00421004  RH  072%=      5-min Rain = 0
KDO1 171052Z 00000KT 04/M00 A3004 RMK A01 T00411004  RH  073%=      5-min Rain = 0
KDO1 171053Z 00000KT 04/M00 A3004 RMK A01 T00401003  RH  073%=      5-min Rain = 0
KDO1 171054Z 00000KT 04/M00 A3004 RMK A01 T00401004  RH  073%=      5-min Rain = 0
KDO1 171055Z 00000KT 04/M00 A3004 RMK A01 T00391004  RH  073%=      5-min Rain = 0
KDO1 171056Z 00000KT 04/M00 A3004 RMK A01 T00381004  RH  074%=      5-min Rain = 0
KDO1 171057Z 00000KT 04/M00 A3004 RMK A01 T00381004  RH  074%=      5-min Rain = 0
KDO1 171058Z 17000KT 04/M00 A3004 RMK A01 T00371004  RH  074%=      5-min Rain = 0
KDO1 171059Z 17000KT 04/M00 A3004 RMK A01 T00371004  RH  074%=      5-min Rain = 0
KDO1 171100Z 00000KT 04/M00 A3004 RMK A01 T00371004  RH  075%=      5-min Rain = 0
KDO1 171101Z 00000KT 04/M00 A3004 RMK A01 T00371004  RH  075%=      5-min Rain = 0
KDO1 171102Z 00000KT 04/M01 A3004 RMK A01 T00361005  RH  075%=      5-min Rain = 0
KDO1 171103Z 00000KT 04/M01 A3004 RMK A01 T00361005  RH  075%=      5-min Rain = 0
KDO1 171104Z 00000KT 04/M00 A3004 RMK A01 T00361004  RH  075%=      5-min Rain = 0
KDO1 171105Z 00000KT 04/M00 A3004 RMK A01 T00361004  RH  075%=      5-min Rain = 0
KDO1 171106Z 00000KT 04/M00 A3004 RMK A01 T00361004  RH  075%=      5-min Rain = 0
KDO1 171107Z 22000KT 04/M00 A3004 RMK A01 T00371003  RH  075%=      5-min Rain = 0
KDO1 171108Z 23000KT 04/M00 A3004 RMK A01 T00381003  RH  075%=      5-min Rain = 0
KDO1 171109Z 00000KT 04/M00 A3004 RMK A01 T00391003  RH  075%=      5-min Rain = 0
KDO1 171110Z 25000KT 04/M00 A3004 RMK A01 T00391003  RH  074%=      5-min Rain = 0
KDO1 171111Z 25000KT 04/M00 A3004 RMK A01 T00391002  RH  075%=      5-min Rain = 0
KDO1 171112Z 00000KT 04/M00 A3004 RMK A01 T00401002  RH  074%=      5-min Rain = 0
KDO1 171113Z 00000KT 04/M00 A3004 RMK A01 T00411002  RH  074%=      5-min Rain = 0
KDO1 171114Z 00000KT 04/M00 A3004 RMK A01 T00421002  RH  073%=      5-min Rain = 0
KDO1 171115Z 00000KT 04/M00 A3004 RMK A01 T00421002  RH  073%=      5-min Rain = 0
KDO1 171116Z 00000KT 04/M00 A3004 RMK A01 T00431002  RH  072%=      5-min Rain = 0
KDO1 171117Z 00000KT 04/M00 A3004 RMK A01 T00441002  RH  072%=      5-min Rain = 0
KDO1 171118Z 00000KT 04/M00 A3004 RMK A01 T00441002  RH  072%=      5-min Rain = 0
KDO1 171119Z 00000KT 04/M00 A3004 RMK A01 T00441003  RH  072%=      5-min Rain = 0
KDO1 171120Z 00000KT 04/M00 A3004 RMK A01 T00441003  RH  072%=      5-min Rain = 0
KDO1 171121Z 00000KT 04/M00 A3004 RMK A01 T00431003  RH  072%=      5-min Rain = 0
KDO1 171122Z 24000KT 04/M00 A3004 RMK A01 T00431003  RH  072%=      5-min Rain = 0
KDO1 171123Z 23001KT 04/M00 A3004 RMK A01 T00431002  RH  072%=      5-min Rain = 0
KDO1 171124Z 23001KT 04/M00 A3004 RMK A01 T00431002  RH  072%=      5-min Rain = 0
KDO1 171125Z 22001KT 04/M00 A3004 RMK A01 T00421003  RH  073%=      5-min Rain = 0
KDO1 171126Z 21001KT 04/M00 A3004 RMK A01 T00421003  RH  073%=      5-min Rain = 0
KDO1 171127Z 22001KT 04/M00 A3004 RMK A01 T00421003  RH  073%=      5-min Rain = 0
KDO1 171128Z 21001KT 04/M00 A3004 RMK A01 T00411003  RH  073%=      5-min Rain = 0
KDO1 171129Z 20001KT 04/M00 A3004 RMK A01 T00411003  RH  073%=      5-min Rain = 0
KDO1 171130Z 19001KT 04/M00 A3004 RMK A01 T00411003  RH  073%=      5-min Rain = 0
KDO1 171131Z 18001KT 04/M00 A3004 RMK A01 T00421002  RH  073%=      5-min Rain = 0
KDO1 171132Z 17001KT 04/M00 A3004 RMK A01 T00431002  RH  073%=      5-min Rain = 0
KDO1 171133Z 16001KT 04/M00 A3004 RMK A01 T00441001  RH  072%=      5-min Rain = 0
KDO1 171134Z 14001KT 04/M00 A3004 RMK A01 T00441002  RH  072%=      5-min Rain = 0
KDO1 171135Z 13001KT 04/M00 A3004 RMK A01 T00431002  RH  072%=      5-min Rain = 0
KDO1 171136Z 15000KT 04/M00 A3003 RMK A01 T00421002  RH  073%=      5-min Rain = 0
KDO1 171137Z 14000KT 04/M00 A3003 RMK A01 T00421002  RH  073%=      5-min Rain = 0
KDO1 171138Z 14000KT 04/M00 A3003 RMK A01 T00421002  RH  073%=      5-min Rain = 0
KDO1 171139Z 00000KT 04/M00 A3003 RMK A01 T00421003  RH  073%=      5-min Rain = 0
KDO1 171140Z 14000KT 04/M00 A3003 RMK A01 T00411003  RH  073%=      5-min Rain = 0
KDO1 171141Z 14000KT 04/M00 A3003 RMK A01 T00411003  RH  073%=      5-min Rain = 0
KDO1 171142Z 00000KT 04/M00 A3003 RMK A01 T00421002  RH  073%=      5-min Rain = 0
KDO1 171143Z 00000KT 04/M00 A3003 RMK A01 T00441002  RH  072%=      5-min Rain = 0
KDO1 171144Z 00000KT 04/M00 A3003 RMK A01 T00441003  RH  072%=      5-min Rain = 0
KDO1 171145Z 00000KT 04/M00 A3003 RMK A01 T00431003  RH  072%=      5-min Rain = 0
KDO1 171146Z 00000KT 04/M01 A3003 RMK A01 T00411005  RH  072%=      5-min Rain = 0
KDO1 171147Z 00000KT 04/M01 A3004 RMK A01 T00391006  RH  072%=      5-min Rain = 0
KDO1 171148Z 00000KT 04/M01 A3004 RMK A01 T00371007  RH  073%=      5-min Rain = 0
KDO1 171149Z 00000KT 03/M01 A3003 RMK A01 T00341007  RH  074%=      5-min Rain = 0
KDO1 171150Z 00000KT 03/M01 A3003 RMK A01 T00321007  RH  075%=      5-min Rain = 0
KDO1 171151Z 00000KT 03/M01 A3003 RMK A01 T00301007  RH  076%=      5-min Rain = 0
KDO1 171152Z 23000KT 03/M01 A3003 RMK A01 T00291007  RH  077%=      5-min Rain = 0
KDO1 171153Z 23001KT 03/M01 A3003 RMK A01 T00291006  RH  078%=      5-min Rain = 0
KDO1 171154Z 23001KT 03/M01 A3003 RMK A01 T00291006  RH  078%=      5-min Rain = 0
KDO1 171155Z 22001KT 03/M01 A3003 RMK A01 T00281006  RH  078%=      5-min Rain = 0
KDO1 171156Z 21002KT 03/M01 A3003 RMK A01 T00281005  RH  078%=      5-min Rain = 0
KDO1 171157Z 20002KT 03/M01 A3003 RMK A01 T00281005  RH  079%=      5-min Rain = 0
KDO1 171158Z 19002KT 03/M00 A3003 RMK A01 T00291004  RH  079%=      5-min Rain = 0
KDO1 171159Z 19002KT 03/M00 A3003 RMK A01 T00301004  RH  079%=      5-min Rain = 0
KDO1 171200Z 18002KT 03/M00 A3003 RMK A01 T00311003  RH  078%=      5-min Rain = 0
KDO1 171201Z 19002KT 03/M00 A3003 RMK A01 T00321002  RH  078%=      5-min Rain = 0
KDO1 171202Z 19002KT 03/M00 A3003 RMK A01 T00331002  RH  078%=      5-min Rain = 0
KDO1 171203Z 19001KT 03/M00 A3003 RMK A01 T00341002  RH  077%=      5-min Rain = 0
KDO1 171204Z 19001KT 04/M00 A3003 RMK A01 T00351001  RH  077%=      5-min Rain = 0
KDO1 171205Z 19001KT 04/M00 A3003 RMK A01 T00361001  RH  076%=      5-min Rain = 0
KDO1 171206Z 20001KT 04/M00 A3003 RMK A01 T00371002  RH  076%=      5-min Rain = 0
KDO1 171207Z 22001KT 04/M00 A3003 RMK A01 T00371002  RH  076%=      5-min Rain = 0
KDO1 171208Z 22001KT 04/M00 A3003 RMK A01 T00371002  RH  076%=      5-min Rain = 0
KDO1 171209Z 22001KT 04/M00 A3003 RMK A01 T00371002  RH  076%=      5-min Rain = 0
KDO1 171210Z 21001KT 04/M00 A3003 RMK A01 T00381002  RH  075%=      5-min Rain = 0
KDO1 171211Z 20001KT 04/M00 A3003 RMK A01 T00401002  RH  075%=      5-min Rain = 0
KDO1 171212Z 19001KT 04/M00 A3003 RMK A01 T00401002  RH  074%=      5-min Rain = 0
KDO1 171213Z 19001KT 04/M00 A3003 RMK A01 T00421001  RH  074%=      5-min Rain = 0
KDO1 171214Z 19001KT 04/M00 A3003 RMK A01 T00431001  RH  073%=      5-min Rain = 0
KDO1 171215Z 20001KT 04/M00 A3003 RMK A01 T00431001  RH  073%=      5-min Rain = 0
KDO1 171216Z 21001KT 04/M00 A3003 RMK A01 T00431001  RH  073%=      5-min Rain = 0
KDO1 171217Z 21001KT 04/M00 A3003 RMK A01 T00431001  RH  073%=      5-min Rain = 0
KDO1 171218Z 20001KT 04/M00 A3003 RMK A01 T00431001  RH  073%=      5-min Rain = 0
KDO1 171219Z 21001KT 04/M00 A3003 RMK A01 T00431001  RH  073%=      5-min Rain = 0
KDO1 171220Z 21001KT 04/M00 A3003 RMK A01 T00441001  RH  073%=      5-min Rain = 0
KDO1 171221Z 20002KT 04/M00 A3003 RMK A01 T00441001  RH  073%=      5-min Rain = 0
KDO1 171222Z 19002KT 04/M00 A3003 RMK A01 T00441001  RH  072%=      5-min Rain = 0
KDO1 171223Z 18002KT 04/M00 A3003 RMK A01 T00441001  RH  072%=      5-min Rain = 0
KDO1 171224Z 18002KT 05/00 A3003 RMK A01 T004500-0  RH  072%=      5-min Rain = 0
KDO1 171225Z 18002KT 05/M00 A3003 RMK A01 T00451001  RH  072%=      5-min Rain = 0
KDO1 171226Z 18001KT 05/M00 A3003 RMK A01 T00461001  RH  072%=      5-min Rain = 0
KDO1 171227Z 18001KT 05/M00 A3003 RMK A01 T00471001  RH  071%=      5-min Rain = 0
KDO1 171228Z 19000KT 05/M00 A3003 RMK A01 T00471001  RH  071%=      5-min Rain = 0
KDO1 171229Z 00000KT 05/00 A3003 RMK A01 T004700-0  RH  071%=      5-min Rain = 0
KDO1 171230Z 00000KT 05/M00 A3003 RMK A01 T00461001  RH  072%=      5-min Rain = 0
KDO1 171231Z 00000KT 05/M00 A3003 RMK A01 T00461001  RH  072%=      5-min Rain = 0
KDO1 171232Z 22000KT 05/M00 A3003 RMK A01 T00451001  RH  072%=      5-min Rain = 0
KDO1 171233Z 22000KT 05/M00 A3003 RMK A01 T00451001  RH  072%=      5-min Rain = 0
KDO1 171234Z 00000KT 04/M00 A3003 RMK A01 T00441002  RH  072%=      5-min Rain = 0
KDO1 171235Z 21000KT 04/M00 A3003 RMK A01 T00441001  RH  073%=      5-min Rain = 0
KDO1 171236Z 00000KT 04/M00 A3003 RMK A01 T00431002  RH  072%=      5-min Rain = 0
KDO1 171237Z 00000KT 04/M00 A3003 RMK A01 T00421004  RH  072%=      5-min Rain = 0
KDO1 171238Z 00000KT 04/M00 A3003 RMK A01 T00401004  RH  073%=      5-min Rain = 0
KDO1 171239Z 00000KT 04/M00 A3003 RMK A01 T00391003  RH  074%=      5-min Rain = 0
KDO1 171240Z 00000KT 04/M00 A3003 RMK A01 T00391002  RH  074%=      5-min Rain = 0
KDO1 171241Z 00000KT 04/M00 A3003 RMK A01 T00391002  RH  075%=      5-min Rain = 0
KDO1 171242Z 00000KT 04/M00 A3003 RMK A01 T00391002  RH  074%=      5-min Rain = 0
KDO1 171243Z 00000KT 04/M00 A3003 RMK A01 T00391003  RH  074%=      5-min Rain = 0
KDO1 171244Z 15000KT 04/M00 A3003 RMK A01 T00381003  RH  074%=      5-min Rain = 0
KDO1 171245Z 00000KT 04/M00 A3003 RMK A01 T00381003  RH  075%=      5-min Rain = 0
KDO1 171246Z 00000KT 04/M00 A3003 RMK A01 T00391002  RH  075%=      5-min Rain = 0
KDO1 171247Z 00000KT 04/M00 A3003 RMK A01 T00401002  RH  074%=      5-min Rain = 0
KDO1 171248Z 00000KT 04/M00 A3003 RMK A01 T00401003  RH  074%=      5-min Rain = 0
KDO1 171249Z 00000KT 04/M00 A3003 RMK A01 T00401003  RH  074%=      5-min Rain = 0
KDO1 171250Z 00000KT 04/M00 A3003 RMK A01 T00401003  RH  074%=      5-min Rain = 0
KDO1 171251Z 00000KT 04/M00 A3003 RMK A01 T00391002  RH  074%=      5-min Rain = 0
KDO1 171252Z 00000KT 04/M00 A3003 RMK A01 T00401001  RH  075%=      5-min Rain = 0
KDO1 171253Z 00000KT 04/M00 A3003 RMK A01 T00411001  RH  074%=      5-min Rain = 0
KDO1 171254Z 00000KT 04/M00 A3003 RMK A01 T00421002  RH  073%=      5-min Rain = 0
KDO1 171255Z 00000KT 04/M00 A3003 RMK A01 T00411004  RH  072%=      5-min Rain = 0
KDO1 171256Z 00000KT 04/M01 A3003 RMK A01 T00381005  RH  073%=      5-min Rain = 0
KDO1 171257Z 00000KT 04/M01 A3003 RMK A01 T00371005  RH  074%=      5-min Rain = 0
KDO1 171258Z 00000KT 04/M01 A3003 RMK A01 T00351006  RH  075%=      5-min Rain = 0
KDO1 171259Z 00000KT 03/M01 A3003 RMK A01 T00341006  RH  075%=      5-min Rain = 0
KDO1 171300Z 00000KT 03/M01 A3003 RMK A01 T00331006  RH  076%=      5-min Rain = 0
KDO1 171301Z 00000KT 03/M01 A3003 RMK A01 T00321006  RH  076%=      5-min Rain = 0
KDO1 171302Z 11000KT 03/M01 A3003 RMK A01 T00311006  RH  077%=      5-min Rain = 0
KDO1 171303Z 10000KT 03/M01 A3003 RMK A01 T00311006  RH  077%=      5-min Rain = 0
KDO1 171304Z 00000KT 03/M01 A3003 RMK A01 T00311005  RH  077%=      5-min Rain = 0
KDO1 171305Z 00000KT 03/M01 A3003 RMK A01 T00311006  RH  077%=      5-min Rain = 0
KDO1 171306Z 00000KT 03/M01 A3003 RMK A01 T00311005  RH  077%=      5-min Rain = 0
KDO1 171307Z 00000KT 03/M01 A3003 RMK A01 T00311005  RH  077%=      5-min Rain = 0
KDO1 171308Z 00000KT 03/M01 A3003 RMK A01 T00311005  RH  077%=      5-min Rain = 0
KDO1 171309Z 00000KT 03/M01 A3003 RMK A01 T00321005  RH  077%=      5-min Rain = 0
KDO1 171310Z 00000KT 03/M01 A3003 RMK A01 T00321005  RH  077%=      5-min Rain = 0
KDO1 171311Z 00000KT 03/M00 A3003 RMK A01 T00321004  RH  077%=      5-min Rain = 0
KDO1 171312Z 00000KT 03/M00 A3003 RMK A01 T00331004  RH  077%=      5-min Rain = 0
KDO1 171313Z 00000KT 03/M00 A3003 RMK A01 T00331004  RH  077%=      5-min Rain = 0
KDO1 171314Z 00000KT 03/M00 A3003 RMK A01 T00331004  RH  077%=      5-min Rain = 0
KDO1 171315Z 00000KT 03/M00 A3003 RMK A01 T00341004  RH  076%=      5-min Rain = 0
KDO1 171316Z 00000KT 04/M00 A3003 RMK A01 T00351003  RH  076%=      5-min Rain = 0
KDO1 171317Z 00000KT 04/M00 A3003 RMK A01 T00361002  RH  076%=      5-min Rain = 0
KDO1 171318Z 00000KT 04/M00 A3003 RMK A01 T00371002  RH  076%=      5-min Rain = 0
KDO1 171319Z 00000KT 04/M00 A3003 RMK A01 T00381002  RH  075%=      5-min Rain = 0
KDO1 171320Z 00000KT 04/M00 A3003 RMK A01 T00391001  RH  075%=      5-min Rain = 0
KDO1 171321Z 17001KT 04/M00 A3003 RMK A01 T00401001  RH  075%=      5-min Rain = 0
KDO1 171322Z 19000KT 04/00 A3003 RMK A01 T00410000  RH  075%=      5-min Rain = 0
KDO1 171323Z 18000KT 04/00 A3003 RMK A01 T00420002  RH  075%=      5-min Rain = 0
KDO1 171324Z 21001KT 04/00 A3003 RMK A01 T00430002  RH  075%=      5-min Rain = 0
KDO1 171325Z 20001KT 04/00 A3003 RMK A01 T00440001  RH  074%=      5-min Rain = 0
KDO1 171326Z 20001KT 05/00 A3003 RMK A01 T00450004  RH  074%=      5-min Rain = 0
KDO1 171327Z 19002KT 05/01 A3003 RMK A01 T00470005  RH  074%=      5-min Rain = 0
KDO1 171328Z 18001KT 05/01 A3003 RMK A01 T00490006  RH  074%=      5-min Rain = 0
KDO1 171329Z 18001KT 05/01 A3003 RMK A01 T00520006  RH  072%=      5-min Rain = 0
KDO1 171330Z 17001KT 05/00 A3003 RMK A01 T00540004  RH  070%=      5-min Rain = 0
KDO1 171331Z 16001KT 06/01 A3003 RMK A01 T00570006  RH  069%=      5-min Rain = 0
KDO1 171332Z 20000KT 06/01 A3003 RMK A01 T00610006  RH  068%=      5-min Rain = 0
KDO1 171333Z 20000KT 06/01 A3003 RMK A01 T00640005  RH  066%=      5-min Rain = 0
KDO1 171334Z 00000KT 07/00 A3003 RMK A01 T00660004  RH  065%=      5-min Rain = 0
KDO1 171335Z 00000KT 07/00 A3003 RMK A01 T00680004  RH  064%=      5-min Rain = 0
KDO1 171336Z 29000KT 07/01 A3003 RMK A01 T00690005  RH  063%=      5-min Rain = 0
KDO1 171337Z 27001KT 07/01 A3003 RMK A01 T00700005  RH  063%=      5-min Rain = 0
KDO1 171338Z 27001KT 07/01 A3003 RMK A01 T00710005  RH  063%=      5-min Rain = 0
KDO1 171339Z 25001KT 07/00 A3003 RMK A01 T00700004  RH  063%=      5-min Rain = 0
KDO1 171340Z 23001KT 07/00 A3003 RMK A01 T00700003  RH  062%=      5-min Rain = 0
KDO1 171341Z 21001KT 07/00 A3003 RMK A01 T00700003  RH  063%=      5-min Rain = 0
KDO1 171342Z 21001KT 07/00 A3003 RMK A01 T00700002  RH  062%=      5-min Rain = 0
KDO1 171343Z 19000KT 07/00 A3003 RMK A01 T00700001  RH  062%=      5-min Rain = 0
KDO1 171344Z 21000KT 07/00 A3003 RMK A01 T00700001  RH  062%=      5-min Rain = 0
KDO1 171345Z 23000KT 07/00 A3003 RMK A01 T00700003  RH  062%=      5-min Rain = 0
KDO1 171346Z 21000KT 07/00 A3003 RMK A01 T00710002  RH  062%=      5-min Rain = 0
KDO1 171347Z 25000KT 07/00 A3003 RMK A01 T00720002  RH  061%=      5-min Rain = 0
KDO1 171348Z 25000KT 07/00 A3003 RMK A01 T00720003  RH  061%=      5-min Rain = 0
KDO1 171349Z 25002KT 07/00 A3003 RMK A01 T00730004  RH  061%=      5-min Rain = 0
KDO1 171350Z 25002KT 07/01 A3003 RMK A01 T00740005  RH  061%=      5-min Rain = 0
KDO1 171351Z 24001KT 08/01 A3003 RMK A01 T00750005  RH  061%=      5-min Rain = 0
KDO1 171352Z 25001KT 08/01 A3003 RMK A01 T00760006  RH  061%=      5-min Rain = 0
KDO1 171353Z 23002KT 08/01 A3003 RMK A01 T00770007  RH  061%=      5-min Rain = 0
KDO1 171354Z 22001KT 08/01 A3003 RMK A01 T00780007  RH  061%=      5-min Rain = 0
KDO1 171355Z 24002KT 08/01 A3003 RMK A01 T00780008  RH  061%=      5-min Rain = 0
KDO1 171356Z 24002KT 08/01 A3003 RMK A01 T00790009  RH  061%=      5-min Rain = 0
KDO1 171357Z 25002KT 08/01 A3003 RMK A01 T00800010  RH  061%=      5-min Rain = 0
KDO1 171358Z 25003KT 08/01 A3003 RMK A01 T00810009  RH  060%=      5-min Rain = 0
KDO1 171359Z 24003KT 08/01 A3003 RMK A01 T00820008  RH  059%=      5-min Rain = 0
KDO1 171400Z 24003KT 09/01 A3003 RMK A01 T00850009  RH  059%=      5-min Rain = 0
KDO1 171401Z 23002KT 09/01 A3003 RMK A01 T00860008  RH  058%=      5-min Rain = 0
KDO1 171402Z 24003KT 09/01 A3003 RMK A01 T00870008  RH  058%=      5-min Rain = 0
KDO1 171403Z 24003KT 09/01 A3003 RMK A01 T00880008  RH  057%=      5-min Rain = 0
KDO1 171404Z 24003KT 09/01 A3003 RMK A01 T00890008  RH  057%=      5-min Rain = 0
KDO1 171405Z 23003KT 09/01 A3003 RMK A01 T00900007  RH  056%=      5-min Rain = 0
KDO1 171406Z 24003KT 09/01 A3003 RMK A01 T00910008  RH  056%=      5-min Rain = 0
KDO1 171407Z 24004KT 09/01 A3003 RMK A01 T00920008  RH  056%=      5-min Rain = 0
KDO1 171408Z 24004KT 09/01 A3003 RMK A01 T00930006  RH  054%=      5-min Rain = 0
KDO1 171409Z 24003KT 10/01 A3003 RMK A01 T00950007  RH  054%=      5-min Rain = 0
KDO1 171410Z 25004KT 10/01 A3003 RMK A01 T00960007  RH  054%=      5-min Rain = 0
KDO1 171411Z 24005KT 10/01 A3003 RMK A01 T00960006  RH  053%=      5-min Rain = 0
KDO1 171412Z 24004KT 10/00 A3003 RMK A01 T00960004  RH  053%=      5-min Rain = 0
KDO1 171413Z 23004KT 10/01 A3003 RMK A01 T00960005  RH  053%=      5-min Rain = 0
KDO1 171414Z 22003KT 10/01 A3003 RMK A01 T00980006  RH  053%=      5-min Rain = 0
KDO1 171415Z 23005KT 10/01 A3003 RMK A01 T00990006  RH  053%=      5-min Rain = 0
KDO1 171416Z 23004KT 10/01 A3003 RMK A01 T00990005  RH  052%=      5-min Rain = 0
KDO1 171417Z 22003KT 10/01 A3003 RMK A01 T00990007  RH  052%=      5-min Rain = 0
KDO1 171418Z 23004KT 10/01 A3003 RMK A01 T01010009  RH  053%=      5-min Rain = 0
KDO1 171419Z 22004KT 10/01 A3003 RMK A01 T01020008  RH  052%=      5-min Rain = 0
KDO1 171420Z 23003KT 10/01 A3003 RMK A01 T01030008  RH  052%=      5-min Rain = 0
KDO1 171421Z 23004KT 10/01 A3003 RMK A01 T01030008  RH  052%=      5-min Rain = 0
KDO1 171422Z 22004KT 10/01 A3003 RMK A01 T01040008  RH  052%=      5-min Rain = 0
KDO1 171423Z 22005KT 11/01 A3003 RMK A01 T01050008  RH  051%=      5-min Rain = 0
KDO1 171424Z 22003KT 11/01 A3003 RMK A01 T01060008  RH  051%=      5-min Rain = 0
KDO1 171425Z 21004KT 11/01 A3003 RMK A01 T01070009  RH  051%=      5-min Rain = 0
KDO1 171426Z 21003KT 11/01 A3003 RMK A01 T01090011  RH  051%=      5-min Rain = 0
KDO1 171427Z 21004KT 11/01 A3003 RMK A01 T01110011  RH  050%=      5-min Rain = 0
KDO1 171428Z 21004KT 11/01 A3003 RMK A01 T01120010  RH  049%=      5-min Rain = 0
KDO1 171429Z 20004KT 11/01 A3003 RMK A01 T01130010  RH  049%=      5-min Rain = 0
KDO1 171430Z 21005KT 11/01 A3003 RMK A01 T01140011  RH  049%=      5-min Rain = 0
KDO1 171431Z 21006KT 12/01 A3003 RMK A01 T01150009  RH  048%=      5-min Rain = 0
KDO1 171432Z 20004KT 12/01 A3003 RMK A01 T01160010  RH  048%=      5-min Rain = 0
KDO1 171433Z 20005KT 12/01 A3003 RMK A01 T01180010  RH  048%=      5-min Rain = 0
KDO1 171434Z 20004KT 12/01 A3003 RMK A01 T01200011  RH  047%=      5-min Rain = 0
KDO1 171435Z 21006KT 12/01 A3003 RMK A01 T01220012  RH  047%=      5-min Rain = 0
KDO1 171436Z 21006KT 12/01 A3003 RMK A01 T01230009  RH  046%=      5-min Rain = 0
KDO1 171437Z 20006KT 12/01 A3003 RMK A01 T01220009  RH  046%=      5-min Rain = 0
KDO1 171438Z 20006KT 12/01 A3003 RMK A01 T01220009  RH  046%=      5-min Rain = 0
KDO1 171439Z 20006KT 12/01 A3003 RMK A01 T01220009  RH  046%=      5-min Rain = 0
KDO1 171440Z 21004KT 12/01 A3003 RMK A01 T01230008  RH  045%=      5-min Rain = 0
KDO1 171441Z 22005KT 12/01 A3003 RMK A01 T01240010  RH  046%=      5-min Rain = 0
KDO1 171442Z 22004KT 13/01 A3003 RMK A01 T01250009  RH  045%=      5-min Rain = 0
KDO1 171443Z 22003KT 13/01 A3003 RMK A01 T01270011  RH  045%=      5-min Rain = 0
KDO1 171444Z 22004KT 13/01 A3003 RMK A01 T01280010  RH  044%=      5-min Rain = 0
KDO1 171445Z 22005KT 13/01 A3003 RMK A01 T01280010  RH  044%=      5-min Rain = 0
KDO1 171446Z 20003KT 13/01 A3003 RMK A01 T01280011  RH  045%=      5-min Rain = 0
KDO1 171447Z 20004KT 13/01 A3003 RMK A01 T01300013  RH  045%=      5-min Rain = 0
KDO1 171448Z 20005KT 13/01 A3003 RMK A01 T01320011  RH  044%=      5-min Rain = 0
KDO1 171449Z 20004KT 13/01 A3003 RMK A01 T01340012  RH  043%=      5-min Rain = 0
KDO1 171450Z 19004KT 14/01 A3003 RMK A01 T01350011  RH  043%=      5-min Rain = 0
KDO1 171451Z 19004KT 14/01 A3003 RMK A01 T01370013  RH  043%=      5-min Rain = 0
KDO1 171452Z 19004KT 14/01 A3003 RMK A01 T01390012  RH  042%=      5-min Rain = 0
KDO1 171453Z 18004KT 14/01 A3003 RMK A01 T01390011  RH  042%=      5-min Rain = 0
KDO1 171454Z 19004KT 14/01 A3003 RMK A01 T01400012  RH  042%=      5-min Rain = 0
KDO1 171455Z 18005KT 14/01 A3003 RMK A01 T01410012  RH  041%=      5-min Rain = 0
KDO1 171456Z 18004KT 14/01 A3003 RMK A01 T01420011  RH  041%=      5-min Rain = 0
KDO1 171457Z 19004KT 14/01 A3003 RMK A01 T01420010  RH  041%=      5-min Rain = 0
KDO1 171458Z 19004KT 14/01 A3003 RMK A01 T01430012  RH  041%=      5-min Rain = 0
KDO1 171459Z 19004KT 15/01 A3003 RMK A01 T01450013  RH  041%=      5-min Rain = 0
KDO1 171500Z 18005KT 15/01 A3003 RMK A01 T01460012  RH  040%=      5-min Rain = 0
KDO1 171501Z 18004KT 15/01 A3003 RMK A01 T01480011  RH  040%=      5-min Rain = 0
KDO1 171502Z 19004KT 15/01 A3003 RMK A01 T01490012  RH  039%=      5-min Rain = 0
KDO1 171503Z 19005KT 15/01 A3003 RMK A01 T01510011  RH  039%=      5-min Rain = 0
KDO1 171504Z 19004KT 15/01 A3003 RMK A01 T01520010  RH  038%=      5-min Rain = 0
KDO1 171505Z 19005KT 15/01 A3003 RMK A01 T01530012  RH  038%=      5-min Rain = 0
KDO1 171506Z 18005KT 15/01 A3003 RMK A01 T01540009  RH  037%=      5-min Rain = 0
KDO1 171507Z 18005KT 15/01 A3003 RMK A01 T01530009  RH  038%=      5-min Rain = 0
KDO1 171508Z 19006KT 15/01 A3003 RMK A01 T01540010  RH  037%=      5-min Rain = 0
KDO1 171509Z 19005KT 15/01 A3003 RMK A01 T01540010  RH  037%=      5-min Rain = 0
KDO1 171510Z 18004KT 15/01 A3003 RMK A01 T01540012  RH  038%=      5-min Rain = 0
KDO1 171511Z 19006KT 16/01 A3003 RMK A01 T01550010  RH  037%=      5-min Rain = 0
KDO1 171512Z 19007KT 16/01 A3003 RMK A01 T01560010  RH  037%=      5-min Rain = 0
KDO1 171513Z 19006KT 16/01 A3003 RMK A01 T01560010  RH  037%=      5-min Rain = 0
KDO1 171514Z 19006KT 16/01 A3003 RMK A01 T01550010  RH  037%=      5-min Rain = 0
KDO1 171515Z 21004KT 16/01 A3003 RMK A01 T01550010  RH  037%=      5-min Rain = 0
KDO1 171516Z 20005KT 16/01 A3003 RMK A01 T01550011  RH  037%=      5-min Rain = 0
KDO1 171517Z 19005KT 16/01 A3003 RMK A01 T01560011  RH  037%=      5-min Rain = 0
KDO1 171518Z 19005KT 16/01 A3003 RMK A01 T01560012  RH  038%=      5-min Rain = 0
KDO1 171519Z 19004KT 16/01 A3003 RMK A01 T01570012  RH  038%=      5-min Rain = 0
KDO1 171520Z 19004KT 16/01 A3003 RMK A01 T01580013  RH  038%=      5-min Rain = 0
KDO1 171521Z 20004KT 16/01 A3003 RMK A01 T01590013  RH  037%=      5-min Rain = 0
KDO1 171522Z 19004KT 16/01 A3002 RMK A01 T01600014  RH  037%=      5-min Rain = 0
KDO1 171523Z 19005KT 16/02 A3002 RMK A01 T01610015  RH  037%=      5-min Rain = 0
KDO1 171524Z 19005KT 16/02 A3002 RMK A01 T01630017  RH  037%=      5-min Rain = 0
KDO1 171525Z 18006KT 17/02 A3002 RMK A01 T01650016  RH  037%=      5-min Rain = 0
KDO1 171526Z 19007KT 17/02 A3002 RMK A01 T01660018  RH  037%=      5-min Rain = 0
KDO1 171527Z 19007KT 17/02 A3002 RMK A01 T01690018  RH  036%=      5-min Rain = 0
KDO1 171528Z 19009KT 17/02 A3002 RMK A01 T01700017  RH  036%=      5-min Rain = 0
KDO1 171529Z 19007KT 17/02 A3002 RMK A01 T01700016  RH  035%=      5-min Rain = 0
KDO1 171530Z 20006KT 17/02 A3002 RMK A01 T01710018  RH  036%=      5-min Rain = 0
KDO1 171531Z 20006KT 17/02 A3002 RMK A01 T01740019  RH  035%=      5-min Rain = 0
KDO1 171532Z 20005KT 18/02 A3002 RMK A01 T01760018  RH  034%=      5-min Rain = 0
KDO1 171533Z 20006KT 18/02 A3002 RMK A01 T01780019  RH  035%=      5-min Rain = 0
KDO1 171534Z 19008KT 18/02 A3002 RMK A01 T01790019  RH  034%=      5-min Rain = 0
KDO1 171535Z 18007KT 18/02 A3002 RMK A01 T01800020  RH  034%=      5-min Rain = 0
KDO1 171536Z 20008KT 18/02 A3002 RMK A01 T01820020  RH  034%=      5-min Rain = 0
KDO1 171537Z 19009KT 18/02 A3002 RMK A01 T01840018  RH  033%=      5-min Rain = 0
KDO1 171538Z 20010KT 18/02 A3002 RMK A01 T01840018  RH  033%=      5-min Rain = 0
KDO1 171539Z 19009KT 18/02 A3002 RMK A01 T01830018  RH  033%=      5-min Rain = 0
KDO1 171540Z 19008KT 18/02 A3002 RMK A01 T01830017  RH  033%=      5-min Rain = 0
KDO1 171541Z 19008KT 18/02 A3002 RMK A01 T01830017  RH  033%=      5-min Rain = 0
KDO1 171542Z 20009KT 18/02 A3002 RMK A01 T01840018  RH  033%=      5-min Rain = 0
KDO1 171543Z 19008KT 18/02 A3002 RMK A01 T01840020  RH  033%=      5-min Rain = 0
KDO1 171544Z 21009KT 19/02 A3002 RMK A01 T01860021  RH  033%=      5-min Rain = 0
KDO1 171545Z 20010KT 19/02 A3002 RMK A01 T01870020  RH  033%=      5-min Rain = 0
KDO1 171546Z 20009KT 19/02 A3002 RMK A01 T01870021  RH  033%=      5-min Rain = 0
KDO1 171547Z 20008KT 19/02 A3002 RMK A01 T01890023  RH  033%=      5-min Rain = 0
KDO1 171548Z 21008KT 19/02 A3002 RMK A01 T01900023  RH  033%=      5-min Rain = 0
KDO1 171549Z 21007KT 19/02 A3002 RMK A01 T01920022  RH  032%=      5-min Rain = 0
KDO1 171550Z 20008KT 19/02 A3002 RMK A01 T01930024  RH  033%=      5-min Rain = 0
KDO1 171551Z 20008KT 19/02 A3002 RMK A01 T01940024  RH  032%=      5-min Rain = 0
KDO1 171552Z 20006KT 19/03 A3002 RMK A01 T01940025  RH  032%=      5-min Rain = 0
KDO1 171553Z 21010KT 20/02 A3001 RMK A01 T01950023  RH  032%=      5-min Rain = 0
KDO1 171554Z 19010KT 20/02 A3001 RMK A01 T01950022  RH  031%=      5-min Rain = 0
KDO1 171555Z 18010KT 20/02 A3001 RMK A01 T01950023  RH  032%=      5-min Rain = 0
KDO1 171556Z 20007KT 20/02 A3001 RMK A01 T01950023  RH  032%=      5-min Rain = 0
KDO1 171557Z 20007KT 20/02 A3001 RMK A01 T01960024  RH  032%=      5-min Rain = 0
KDO1 171558Z 21008KT 20/03 A3001 RMK A01 T01980026  RH  032%=      5-min Rain = 0
KDO1 171559Z 18008KT 20/02 A3001 RMK A01 T01990024  RH  031%=      5-min Rain = 0
KDO1 171600Z 20009KT 20/02 A3001 RMK A01 T02000023  RH  031%=      5-min Rain = 0
KDO1 171601Z 18008KT 20/02 A3001 RMK A01 T02000023  RH  031%=      5-min Rain = 0
KDO1 171602Z 19008KT 20/02 A3001 RMK A01 T02000023  RH  031%=      5-min Rain = 0
KDO1 171603Z 20008KT 20/02 A3001 RMK A01 T01990023  RH  031%=      5-min Rain = 0
KDO1 171604Z 19008KT 20/02 A3001 RMK A01 T01990022  RH  031%=      5-min Rain = 0
KDO1 171605Z 20008KT 20/02 A3001 RMK A01 T01990023  RH  031%=      5-min Rain = 0
KDO1 171606Z 19011KT 20/02 A3001 RMK A01 T01980023  RH  031%=      5-min Rain = 0
KDO1 171607Z 20008KT 20/02 A3001 RMK A01 T01990022  RH  031%=      5-min Rain = 0
KDO1 171608Z 19008KT 20/02 A3001 RMK A01 T01980021  RH  031%=      5-min Rain = 0
KDO1 171609Z 19011KT 20/02 A3001 RMK A01 T01990024  RH  031%=      5-min Rain = 0
KDO1 171610Z 19010KT 20/02 A3001 RMK A01 T02020024  RH  031%=      5-min Rain = 0
KDO1 171611Z 20010KT 20/02 A3001 RMK A01 T02020023  RH  030%=      5-min Rain = 0
KDO1 171612Z 18009KT 20/02 A30 RMK A01 T02020022  RH  030%=      5-min Rain = 0
KDO1 171613Z 18010KT 20/02 A30 RMK A01 T02010023  RH  031%=      5-min Rain = 0
KDO1 171614Z 19008KT 20/02 A30 RMK A01 T02020024  RH  031%=      5-min Rain = 0
KDO1 171615Z 21009KT 20/02 A30 RMK A01 T02020024  RH  031%=      5-min Rain = 0
KDO1 171616Z 19009KT 20/02 A30 RMK A01 T02030023  RH  030%=      5-min Rain = 0
KDO1 171617Z 18009G14KT 20/03 A30 RMK A01 T02040025  RH  031%=      5-min Rain = 0
KDO1 171618Z 18010KT 21/02 A30 RMK A01 T02050024  RH  030%=      5-min Rain = 0
KDO1 171619Z 17009KT 21/02 A30 RMK A01 T02050023  RH  030%=      5-min Rain = 0
KDO1 171620Z 18009KT 21/02 A30 RMK A01 T02060024  RH  030%=      5-min Rain = 0
KDO1 171621Z 18009KT 21/02 A30 RMK A01 T02060024  RH  030%=      5-min Rain = 0
KDO1 171622Z 19009KT 21/03 A30 RMK A01 T02060026  RH  030%=      5-min Rain = 0
KDO1 171623Z 19009KT 21/03 A30 RMK A01 T02080028  RH  030%=      5-min Rain = 0
KDO1 171624Z 18008KT 21/03 A30 RMK A01 T02090026  RH  030%=      5-min Rain = 0
KDO1 171625Z 18008KT 21/03 A2999 RMK A01 T02100026  RH  030%=      5-min Rain = 0
KDO1 171626Z 18008KT 21/03 A2999 RMK A01 T02110026  RH  029%=      5-min Rain = 0
KDO1 171627Z 19010KT 21/03 A2999 RMK A01 T02110026  RH  029%=      5-min Rain = 0
KDO1 171628Z 20009KT 21/03 A2999 RMK A01 T02110025  RH  029%=      5-min Rain = 0
KDO1 171629Z 20008KT 21/03 A2999 RMK A01 T02110025  RH  029%=      5-min Rain = 0
KDO1 171630Z 19007KT 21/03 A2999 RMK A01 T02110027  RH  030%=      5-min Rain = 0
KDO1 171631Z 20009KT 21/03 A2999 RMK A01 T02130027  RH  029%=      5-min Rain = 0
KDO1 171632Z 20007G13KT 21/03 A2999 RMK A01 T02140029  RH  029%=      5-min Rain = 0
KDO1 171633Z 21011KT 22/03 A2999 RMK A01 T02150027  RH  029%=      5-min Rain = 0
KDO1 171634Z 20008KT 21/03 A2999 RMK A01 T02140026  RH  029%=      5-min Rain = 0
KDO1 171635Z 20009KT 21/03 A2999 RMK A01 T02140028  RH  029%=      5-min Rain = 0
KDO1 171636Z 20011KT 22/03 A2999 RMK A01 T02160029  RH  029%=      5-min Rain = 0
KDO1 171637Z 20011KT 22/03 A2999 RMK A01 T02190028  RH  029%=      5-min Rain = 0
KDO1 171638Z 21008KT 22/03 A2999 RMK A01 T02200028  RH  028%=      5-min Rain = 0
KDO1 171639Z 20008KT 22/03 A2999 RMK A01 T02210028  RH  028%=      5-min Rain = 0
KDO1 171640Z 20008KT 22/03 A2999 RMK A01 T02210028  RH  028%=      5-min Rain = 0
KDO1 171641Z 18011KT 22/03 A2999 RMK A01 T02200029  RH  028%=      5-min Rain = 0
KDO1 171642Z 19010KT 22/03 A2999 RMK A01 T02210028  RH  028%=      5-min Rain = 0
KDO1 171643Z 21009KT 22/03 A2999 RMK A01 T02210029  RH  028%=      5-min Rain = 0
KDO1 171644Z 20011G16KT 22/03 A2999 RMK A01 T02220028  RH  028%=      5-min Rain = 0
KDO1 171645Z 19012KT 22/03 A2999 RMK A01 T02220028  RH  028%=      5-min Rain = 0
KDO1 171651Z 21009KT 22/03 A2998 RMK A01 T02200027  RH  028%=      5-min Rain = 0
KDO1 171652Z 19007KT 22/03 A2998 RMK A01 T02200029  RH  028%=      5-min Rain = 0
KDO1 171653Z 19011KT 22/03 A2998 RMK A01 T02210029  RH  028%=      5-min Rain = 0
KDO1 171654Z 20009KT 22/03 A2998 RMK A01 T02220029  RH  028%=      5-min Rain = 0
KDO1 171655Z 20009KT 22/03 A2998 RMK A01 T02240031  RH  028%=      5-min Rain = 0
KDO1 171656Z 20010KT 23/03 A2998 RMK A01 T02270031  RH  028%=      5-min Rain = 0
KDO1 171657Z 19010KT 23/03 A2998 RMK A01 T02280031  RH  027%=      5-min Rain = 0
KDO1 171658Z 18014KT 23/03 A2998 RMK A01 T02290031  RH  027%=      5-min Rain = 0
KDO1 171659Z 19013KT 23/03 A2998 RMK A01 T02290030  RH  027%=      5-min Rain = 0
KDO1 171700Z 19012KT 23/03 A2998 RMK A01 T02280029  RH  027%=      5-min Rain = 0
KDO1 171701Z 19013KT 23/03 A2998 RMK A01 T02270029  RH  027%=      5-min Rain = 0
KDO1 171702Z 18014KT 23/03 A2998 RMK A01 T02280030  RH  027%=      5-min Rain = 0
KDO1 171703Z 20013KT 23/03 A2998 RMK A01 T02290029  RH  027%=      5-min Rain = 0
KDO1 171704Z 20013KT 23/03 A2998 RMK A01 T02300030  RH  027%=      5-min Rain = 0
KDO1 171705Z 20011KT 23/03 A2998 RMK A01 T02310031  RH  027%=      5-min Rain = 0
KDO1 171706Z 21011KT 23/03 A2998 RMK A01 T02340031  RH  027%=      5-min Rain = 0
KDO1 171707Z 20011KT 24/03 A2998 RMK A01 T02350031  RH  026%=      5-min Rain = 0
KDO1 171708Z 21012KT 24/03 A2998 RMK A01 T02350030  RH  026%=      5-min Rain = 0
KDO1 171709Z 22010G16KT 24/03 A2998 RMK A01 T02350031  RH  026%=      5-min Rain = 0
KDO1 171710Z 21008KT 24/03 A2998 RMK A01 T02360032  RH  026%=      5-min Rain = 0
KDO1 171711Z 21011KT 24/03 A2998 RMK A01 T02380033  RH  026%=      5-min Rain = 0
KDO1 171712Z 21012KT 24/03 A2998 RMK A01 T02390032  RH  026%=      5-min Rain = 0
KDO1 171713Z 20009KT 24/03 A2998 RMK A01 T02390033  RH  026%=      5-min Rain = 0
KDO1 171714Z 20008KT 24/03 A2998 RMK A01 T02390033  RH  026%=      5-min Rain = 0
KDO1 171715Z 21013KT 24/03 A2998 RMK A01 T02400033  RH  026%=      5-min Rain = 0
KDO1 171716Z 21012KT 24/03 A2998 RMK A01 T02400033  RH  026%=      5-min Rain = 0
KDO1 171717Z 21011KT 24/03 A2998 RMK A01 T02380033  RH  026%=      5-min Rain = 0
KDO1 171718Z 20011KT 24/03 A2998 RMK A01 T02380033  RH  026%=      5-min Rain = 0
KDO1 171719Z 20010KT 24/03 A2998 RMK A01 T02380032  RH  026%=      5-min Rain = 0
KDO1 171720Z 19013KT 24/03 A2998 RMK A01 T02380033  RH  026%=      5-min Rain = 0
KDO1 171721Z 21012KT 24/03 A2998 RMK A01 T02380033  RH  026%=      5-min Rain = 0
KDO1 171722Z 21013KT 24/03 A2998 RMK A01 T02390033  RH  026%=      5-min Rain = 0
KDO1 171723Z 20012KT 24/03 A2998 RMK A01 T02380032  RH  026%=      5-min Rain = 0
KDO1 171724Z 19010KT 24/03 A2998 RMK A01 T02370033  RH  026%=      5-min Rain = 0
KDO1 171725Z 18010KT 24/04 A2998 RMK A01 T02390035  RH  026%=      5-min Rain = 0
KDO1 171726Z 19013KT 24/04 A2997 RMK A01 T02410036  RH  026%=      5-min Rain = 0
KDO1 171727Z 20011KT 24/04 A2998 RMK A01 T02430035  RH  026%=      5-min Rain = 0
KDO1 171728Z 20009KT 24/04 A2997 RMK A01 T02430035  RH  026%=      5-min Rain = 0
KDO1 171729Z 20007KT 24/04 A2997 RMK A01 T02440036  RH  026%=      5-min Rain = 0
KDO1 171730Z 18012KT 25/04 A2997 RMK A01 T02460037  RH  026%=      5-min Rain = 0
KDO1 171731Z 19011KT 25/04 A2997 RMK A01 T02480035  RH  025%=      5-min Rain = 0
KDO1 171732Z 18011KT 25/04 A2997 RMK A01 T02470037  RH  026%=      5-min Rain = 0
KDO1 171733Z 19010KT 25/04 A2997 RMK A01 T02470037  RH  025%=      5-min Rain = 0
KDO1 171734Z 20011G17KT 25/04 A2997 RMK A01 T02460036  RH  026%=      5-min Rain = 0
KDO1 171735Z 20014KT 25/04 A2997 RMK A01 T02470036  RH  025%=      5-min Rain = 0
KDO1 171736Z 20009KT 25/04 A2997 RMK A01 T02460035  RH  025%=      5-min Rain = 0
KDO1 171737Z 20013KT 25/04 A2997 RMK A01 T02450036  RH  026%=      5-min Rain = 0
KDO1 171738Z 19011KT 25/04 A2997 RMK A01 T02450036  RH  026%=      5-min Rain = 0
KDO1 171739Z 19008KT 25/04 A2997 RMK A01 T02470039  RH  026%=      5-min Rain = 0
KDO1 171740Z 20014KT 25/04 A2997 RMK A01 T02510041  RH  026%=      5-min Rain = 0
KDO1 171741Z 21012KT 25/04 A2997 RMK A01 T02530040  RH  025%=      5-min Rain = 0
KDO1 171742Z 21011KT 25/04 A2997 RMK A01 T02530040  RH  025%=      5-min Rain = 0
KDO1 171743Z 21008KT 25/04 A2997 RMK A01 T02510037  RH  025%=      5-min Rain = 0
KDO1 171744Z 18014KT 25/04 A2997 RMK A01 T02480039  RH  026%=      5-min Rain = 0
KDO1 171745Z 19011KT 25/04 A2997 RMK A01 T02480039  RH  026%=      5-min Rain = 0
KDO1 171746Z 19013KT 25/04 A2997 RMK A01 T02480042  RH  026%=      5-min Rain = 0
KDO1 171747Z 19015KT 25/04 A2997 RMK A01 T02500041  RH  026%=      5-min Rain = 0
KDO1 171748Z 19013KT 25/04 A2997 RMK A01 T02490039  RH  026%=      5-min Rain = 0
KDO1 171749Z 20012KT 25/04 A2997 RMK A01 T02480040  RH  026%=      5-min Rain = 0
KDO1 171750Z 20014KT 25/04 A2996 RMK A01 T02490038  RH  026%=      5-min Rain = 0
KDO1 171751Z 20012G17KT 25/04 A2996 RMK A01 T02480039  RH  026%=      5-min Rain = 0
KDO1 171752Z 19012KT 25/04 A2996 RMK A01 T02490041  RH  026%=      5-min Rain = 0
KDO1 171753Z 19013KT 25/04 A2996 RMK A01 T02520042  RH  026%=      5-min Rain = 0
KDO1 171754Z 19011KT 25/04 A2996 RMK A01 T02520041  RH  026%=      5-min Rain = 0
KDO1 171755Z 19011KT 25/04 A2996 RMK A01 T02520042  RH  026%=      5-min Rain = 0
KDO1 171756Z 20010KT 25/04 A2996 RMK A01 T02520042  RH  026%=      5-min Rain = 0
KDO1 171757Z 20012G18KT 25/04 A2996 RMK A01 T02540043  RH  026%=      5-min Rain = 0
KDO1 171758Z 18013KT 26/04 A2996 RMK A01 T02560043  RH  025%=      5-min Rain = 0
KDO1 171759Z 20013KT 26/04 A2996 RMK A01 T02560043  RH  025%=      5-min Rain = 0
KDO1 171800Z 21013KT 26/04 A2996 RMK A01 T02550042  RH  025%=      5-min Rain = 0
KDO1 171801Z 21009KT 26/04 A2996 RMK A01 T02550042  RH  025%=      5-min Rain = 0
KDO1 171802Z 20010KT 26/04 A2996 RMK A01 T02560043  RH  025%=      5-min Rain = 0
KDO1 171803Z 20009KT 26/04 A2996 RMK A01 T02570042  RH  025%=      5-min Rain = 0
KDO1 171804Z 19015G20KT 26/04 A2995 RMK A01 T02570044  RH  025%=      5-min Rain = 0
KDO1 171805Z 20013KT 26/04 A2995 RMK A01 T02580041  RH  025%=      5-min Rain = 0
KDO1 171806Z 19013KT 26/04 A2995 RMK A01 T02560041  RH  025%=      5-min Rain = 0
KDO1 171807Z 18011KT 25/04 A2995 RMK A01 T02540041  RH  025%=      5-min Rain = 0
KDO1 171808Z 19012KT 25/04 A2995 RMK A01 T02540042  RH  025%=      5-min Rain = 0
KDO1 171809Z 18009G15KT 25/04 A2995 RMK A01 T02520041  RH  026%=      5-min Rain = 0
KDO1 171810Z 18014KT 25/04 A2995 RMK A01 T02520043  RH  026%=      5-min Rain = 0
KDO1 171811Z 19012KT 25/04 A2995 RMK A01 T02540043  RH  026%=      5-min Rain = 0
KDO1 171812Z 19013G18KT 25/04 A2995 RMK A01 T02540044  RH  026%=      5-min Rain = 0
KDO1 171813Z 18012KT 25/04 A2995 RMK A01 T02540043  RH  026%=      5-min Rain = 0
KDO1 171814Z 19012KT 25/04 A2995 RMK A01 T02530044  RH  026%=      5-min Rain = 0
KDO1 171815Z 19011KT 25/05 A2995 RMK A01 T02540046  RH  026%=      5-min Rain = 0
KDO1 171816Z 18013KT 26/05 A2995 RMK A01 T02570047  RH  026%=      5-min Rain = 0
KDO1 171817Z 18015KT 26/05 A2995 RMK A01 T02590046  RH  025%=      5-min Rain = 0
KDO1 171818Z 18015KT 26/05 A2995 RMK A01 T02590046  RH  025%=      5-min Rain = 0
KDO1 171819Z 19015KT 26/04 A2995 RMK A01 T02570044  RH  025%=      5-min Rain = 0
KDO1 171820Z 19013KT 26/05 A2994 RMK A01 T02550045  RH  026%=      5-min Rain = 0
KDO1 171821Z 20015KT 25/05 A2994 RMK A01 T02540046  RH  026%=      5-min Rain = 0
KDO1 171822Z 21015KT 26/05 A2994 RMK A01 T02550047  RH  026%=      5-min Rain = 0
KDO1 171823Z 20012KT 25/05 A2994 RMK A01 T02540047  RH  026%=      5-min Rain = 0
KDO1 171824Z 18011G16KT 25/05 A2994 RMK A01 T02540047  RH  026%=      5-min Rain = 0
KDO1 171825Z 17013KT 25/05 A2994 RMK A01 T02540048  RH  026%=      5-min Rain = 0
KDO1 171826Z 18012KT 25/05 A2994 RMK A01 T02540048  RH  027%=      5-min Rain = 0
KDO1 171827Z 19018KT 26/05 A2994 RMK A01 T02550049  RH  026%=      5-min Rain = 0
KDO1 171828Z 19015KT 26/05 A2994 RMK A01 T02550048  RH  026%=      5-min Rain = 0
KDO1 171829Z 20016KT 25/05 A2994 RMK A01 T02540049  RH  027%=      5-min Rain = 0
KDO1 171830Z 20013KT 25/05 A2994 RMK A01 T02540048  RH  027%=      5-min Rain = 0
KDO1 171831Z 20009KT 25/05 A2994 RMK A01 T02530048  RH  027%=      5-min Rain = 0
KDO1 171832Z 20009KT 25/05 A2994 RMK A01 T02530049  RH  027%=      5-min Rain = 0
KDO1 171833Z 19015G20KT 25/05 A2994 RMK A01 T02540050  RH  027%=      5-min Rain = 0
KDO1 171834Z 19016KT 26/05 A2994 RMK A01 T02570050  RH  026%=      5-min Rain = 0
KDO1 171835Z 19013KT 26/05 A2994 RMK A01 T02560047  RH  026%=      5-min Rain = 0
KDO1 171836Z 19012KT 25/05 A2993 RMK A01 T02540049  RH  027%=      5-min Rain = 0
KDO1 171837Z 18012KT 25/05 A2993 RMK A01 T02540049  RH  027%=      5-min Rain = 0
KDO1 171838Z 19016KT 26/05 A2993 RMK A01 T02550049  RH  027%=      5-min Rain = 0
KDO1 171839Z 19017KT 25/05 A2993 RMK A01 T02540049  RH  027%=      5-min Rain = 0
KDO1 171840Z 19015KT 26/05 A2993 RMK A01 T02550049  RH  027%=      5-min Rain = 0
KDO1 171841Z 20013KT 25/05 A2993 RMK A01 T02540050  RH  027%=      5-min Rain = 0
KDO1 171842Z 19015G20KT 26/05 A2993 RMK A01 T02560050  RH  027%=      5-min Rain = 0
KDO1 171843Z 18014KT 26/05 A2993 RMK A01 T02570048  RH  026%=      5-min Rain = 0
KDO1 171844Z 19011KT 26/05 A2993 RMK A01 T02550048  RH  026%=      5-min Rain = 0
KDO1 171845Z 18011G16KT 26/05 A2993 RMK A01 T02560052  RH  027%=      5-min Rain = 0
KDO1 171846Z 17018KT 26/05 A2993 RMK A01 T02600050  RH  026%=      5-min Rain = 0
KDO1 171847Z 18015KT 26/05 A2993 RMK A01 T02600047  RH  025%=      5-min Rain = 0
KDO1 171848Z 20014KT 26/05 A2993 RMK A01 T02580047  RH  026%=      5-min Rain = 0
KDO1 171849Z 19013KT 26/05 A2993 RMK A01 T02580047  RH  026%=      5-min Rain = 0
KDO1 171850Z 20012KT 26/05 A2993 RMK A01 T02570048  RH  026%=      5-min Rain = 0
KDO1 171851Z 20009KT 26/05 A2992 RMK A01 T02580048  RH  026%=      5-min Rain = 0
KDO1 171852Z 20008KT 26/05 A2992 RMK A01 T02610051  RH  026%=      5-min Rain = 0
KDO1 171853Z 18014KT 27/05 A2992 RMK A01 T02650053  RH  026%=      5-min Rain = 0
KDO1 171854Z 20015KT 27/05 A2992 RMK A01 T02670050  RH  025%=      5-min Rain = 0
KDO1 171855Z 20014KT 26/05 A2992 RMK A01 T02640048  RH  025%=      5-min Rain = 0
KDO1 171856Z 20013KT 26/05 A2992 RMK A01 T02620049  RH  025%=      5-min Rain = 0
KDO1 171857Z 18014G20KT 26/05 A2992 RMK A01 T02600050  RH  026%=      5-min Rain = 0
KDO1 171858Z 18016G21KT 26/05 A2992 RMK A01 T02600049  RH  026%=      5-min Rain = 0
KDO1 171859Z 18013G19KT 26/05 A2992 RMK A01 T02610048  RH  025%=      5-min Rain = 0
KDO1 171900Z 20012G18KT 26/05 A2992 RMK A01 T02620050  RH  026%=      5-min Rain = 0
KDO1 171901Z 18015KT 27/05 A2992 RMK A01 T02660051  RH  025%=      5-min Rain = 0
KDO1 171902Z 17011KT 27/05 A2992 RMK A01 T02660046  RH  024%=      5-min Rain = 0
KDO1 171903Z 18013KT 27/05 A2992 RMK A01 T02650046  RH  025%=      5-min Rain = 0
KDO1 171904Z 18010KT 26/05 A2991 RMK A01 T02640049  RH  025%=      5-min Rain = 0
KDO1 171905Z 20012KT 26/05 A2991 RMK A01 T02640050  RH  025%=      5-min Rain = 0
KDO1 171906Z 19014KT 26/05 A2991 RMK A01 T02630051  RH  026%=      5-min Rain = 0
KDO1 171907Z 18011G16KT 26/05 A2991 RMK A01 T02640050  RH  025%=      5-min Rain = 0
KDO1 171908Z 18016KT 27/05 A2991 RMK A01 T02670048  RH  025%=      5-min Rain = 0
KDO1 171909Z 18015KT 27/05 A2991 RMK A01 T02660048  RH  025%=      5-min Rain = 0
KDO1 171910Z 17013KT 27/05 A2991 RMK A01 T02650046  RH  024%=      5-min Rain = 0
KDO1 171911Z 18012KT 26/04 A2991 RMK A01 T02640044  RH  024%=      5-min Rain = 0
KDO1 171912Z 17011KT 26/04 A2991 RMK A01 T02640044  RH  024%=      5-min Rain = 0
KDO1 171913Z 18013G18KT 26/05 A2991 RMK A01 T02640045  RH  024%=      5-min Rain = 0
KDO1 171914Z 17015KT 27/04 A2991 RMK A01 T02650044  RH  024%=      5-min Rain = 0
KDO1 171915Z 16011KT 26/04 A2991 RMK A01 T02620043  RH  024%=      5-min Rain = 0
KDO1 171916Z 19012KT 26/05 A2991 RMK A01 T02610047  RH  025%=      5-min Rain = 0
KDO1 171917Z 18010KT 26/05 A2991 RMK A01 T02620048  RH  025%=      5-min Rain = 0
KDO1 171918Z 18011KT 27/05 A2991 RMK A01 T02660051  RH  025%=      5-min Rain = 0
KDO1 171919Z 17014KT 27/05 A2991 RMK A01 T02690050  RH  025%=      5-min Rain = 0
KDO1 171920Z 18016KT 27/05 A2991 RMK A01 T02670046  RH  024%=      5-min Rain = 0
KDO1 171921Z 18011KT 27/05 A2991 RMK A01 T02660047  RH  025%=      5-min Rain = 0
KDO1 171922Z 17012KT 27/05 A2991 RMK A01 T02670048  RH  024%=      5-min Rain = 0
KDO1 171923Z 19012KT 27/05 A2991 RMK A01 T02690047  RH  024%=      5-min Rain = 0
KDO1 171924Z 18014KT 27/05 A2991 RMK A01 T02680048  RH  024%=      5-min Rain = 0
KDO1 171925Z 18011G16KT 27/05 A299 RMK A01 T02660049  RH  025%=      5-min Rain = 0
KDO1 171926Z 18012KT 27/05 A299 RMK A01 T02650048  RH  025%=      5-min Rain = 0
KDO1 171927Z 18012KT 27/05 A299 RMK A01 T02660047  RH  024%=      5-min Rain = 0
KDO1 171928Z 18013KT 27/05 A299 RMK A01 T02680046  RH  024%=      5-min Rain = 0
KDO1 171929Z 18013KT 27/05 A299 RMK A01 T02690045  RH  024%=      5-min Rain = 0
KDO1 171930Z 19015KT 27/05 A299 RMK A01 T02680045  RH  024%=      5-min Rain = 0
KDO1 171931Z 17013KT 27/05 A299 RMK A01 T02670046  RH  024%=      5-min Rain = 0
KDO1 171932Z 18012KT 27/05 A299 RMK A01 T02680046  RH  024%=      5-min Rain = 0
KDO1 171933Z 19014KT 27/05 A299 RMK A01 T02690047  RH  024%=      5-min Rain = 0
KDO1 171934Z 18013KT 27/05 A299 RMK A01 T02700046  RH  024%=      5-min Rain = 0
KDO1 171935Z 18014KT 27/05 A299 RMK A01 T02710047  RH  024%=      5-min Rain = 0
KDO1 171936Z 17013KT 27/05 A299 RMK A01 T02710047  RH  024%=      5-min Rain = 0
KDO1 171937Z 16013KT 27/05 A299 RMK A01 T02680047  RH  024%=      5-min Rain = 0
KDO1 171938Z 18013G20KT 27/05 A299 RMK A01 T02680048  RH  024%=      5-min Rain = 0
KDO1 171939Z 18013G18KT 27/05 A299 RMK A01 T02700045  RH  024%=      5-min Rain = 0
KDO1 171940Z 18012KT 27/05 A299 RMK A01 T02700047  RH  024%=      5-min Rain = 0
KDO1 171941Z 18010KT 27/05 A2989 RMK A01 T02710050  RH  024%=      5-min Rain = 0
KDO1 171942Z 17013KT 27/05 A2989 RMK A01 T02730049  RH  024%=      5-min Rain = 0
KDO1 171943Z 18012G17KT 27/05 A2989 RMK A01 T02730049  RH  024%=      5-min Rain = 0
KDO1 171944Z 18012KT 27/05 A2989 RMK A01 T02720049  RH  024%=      5-min Rain = 0
KDO1 171945Z 18014KT 27/05 A2989 RMK A01 T02730049  RH  024%=      5-min Rain = 0
KDO1 171946Z 19016KT 27/05 A2989 RMK A01 T02740046  RH  023%=      5-min Rain = 0
KDO1 171947Z 18013KT 27/04 A2989 RMK A01 T02720042  RH  023%=      5-min Rain = 0
KDO1 171948Z 19014G19KT 27/04 A2989 RMK A01 T02700044  RH  023%=      5-min Rain = 0
KDO1 171949Z 18016KT 27/05 A2989 RMK A01 T02700046  RH  024%=      5-min Rain = 0
KDO1 171950Z 17015KT 27/04 A2989 RMK A01 T02710044  RH  023%=      5-min Rain = 0
KDO1 171951Z 18013KT 27/04 A2989 RMK A01 T02690044  RH  024%=      5-min Rain = 0
KDO1 171952Z 17011G16KT 27/05 A2989 RMK A01 T02690045  RH  024%=      5-min Rain = 0
KDO1 171953Z 17012G19KT 27/04 A2988 RMK A01 T02690043  RH  023%=      5-min Rain = 0
KDO1 171954Z 18014G21KT 27/04 A2989 RMK A01 T02710044  RH  023%=      5-min Rain = 0
KDO1 171955Z 17014KT 27/04 A2989 RMK A01 T02730044  RH  023%=      5-min Rain = 0
KDO1 171956Z 17013KT 27/04 A2989 RMK A01 T02720043  RH  023%=      5-min Rain = 0
KDO1 171957Z 18009KT 27/04 A2988 RMK A01 T02710043  RH  023%=      5-min Rain = 0
KDO1 171958Z 17012G18KT 27/04 A2988 RMK A01 T02710044  RH  023%=      5-min Rain = 0
KDO1 171959Z 18017KT 27/05 A2988 RMK A01 T02740045  RH  023%=      5-min Rain = 0
KDO1 172000Z 17015KT 27/05 A2988 RMK A01 T02740045  RH  023%=      5-min Rain = 0
KDO1 172001Z 18013KT 27/04 A2988 RMK A01 T02700044  RH  023%=      5-min Rain = 0
KDO1 172002Z 18011KT 27/05 A2988 RMK A01 T02700047  RH  024%=      5-min Rain = 0
KDO1 172003Z 17009G14KT 27/05 A2988 RMK A01 T02720048  RH  024%=      5-min Rain = 0
KDO1 172004Z 19015G20KT 28/05 A2988 RMK A01 T02770048  RH  023%=      5-min Rain = 0
KDO1 172005Z 20015G20KT 28/05 A2988 RMK A01 T02780045  RH  022%=      5-min Rain = 0
KDO1 172006Z 18016KT 28/04 A2988 RMK A01 T02760044  RH  023%=      5-min Rain = 0
KDO1 172007Z 18015KT 27/04 A2988 RMK A01 T02730044  RH  023%=      5-min Rain = 0
KDO1 172008Z 18015KT 27/05 A2988 RMK A01 T02730046  RH  023%=      5-min Rain = 0
KDO1 172009Z 17014KT 27/04 A2988 RMK A01 T02730044  RH  023%=      5-min Rain = 0
KDO1 172010Z 17015KT 27/05 A2988 RMK A01 T02730045  RH  023%=      5-min Rain = 0
KDO1 172011Z 17015KT 27/05 A2988 RMK A01 T02730045  RH  023%=      5-min Rain = 0
KDO1 172012Z 17014KT 27/05 A2988 RMK A01 T02740045  RH  023%=      5-min Rain = 0
KDO1 172013Z 17013KT 27/05 A2988 RMK A01 T02730045  RH  023%=      5-min Rain = 0
KDO1 172014Z 16014KT 28/05 A2988 RMK A01 T02750045  RH  023%=      5-min Rain = 0
KDO1 172015Z 16012KT 27/04 A2987 RMK A01 T02740044  RH  023%=      5-min Rain = 0
KDO1 172016Z 16014KT 27/04 A2987 RMK A01 T02740044  RH  023%=      5-min Rain = 0
KDO1 172017Z 17011G16KT 28/05 A2987 RMK A01 T02750046  RH  023%=      5-min Rain = 0
KDO1 172018Z 17013KT 28/05 A2987 RMK A01 T02770046  RH  023%=      5-min Rain = 0
KDO1 172019Z 17014G20KT 28/05 A2987 RMK A01 T02780046  RH  023%=      5-min Rain = 0
KDO1 172020Z 17014KT 28/05 A2987 RMK A01 T02780045  RH  023%=      5-min Rain = 0
KDO1 172021Z 17011KT 28/04 A2987 RMK A01 T02750044  RH  023%=      5-min Rain = 0
KDO1 172022Z 17014G19KT 27/05 A2987 RMK A01 T02740045  RH  023%=      5-min Rain = 0
KDO1 172023Z 18016KT 28/04 A2987 RMK A01 T02760044  RH  023%=      5-min Rain = 0
KDO1 172024Z 18015KT 28/04 A2987 RMK A01 T02770044  RH  023%=      5-min Rain = 0
KDO1 172025Z 18014KT 28/04 A2987 RMK A01 T02760044  RH  023%=      5-min Rain = 0
KDO1 172026Z 18009KT 28/05 A2987 RMK A01 T02750046  RH  023%=      5-min Rain = 0
KDO1 172027Z 17011KT 28/05 A2987 RMK A01 T02780048  RH  023%=      5-min Rain = 0
KDO1 172028Z 18016G22KT 28/05 A2987 RMK A01 T02790045  RH  022%=      5-min Rain = 0
KDO1 172029Z 18016G21KT 28/04 A2987 RMK A01 T02780042  RH  022%=      5-min Rain = 0
KDO1 172030Z 18012KT 28/04 A2987 RMK A01 T02750043  RH  023%=      5-min Rain = 0
KDO1 172031Z 17013KT 28/04 A2987 RMK A01 T02760044  RH  023%=      5-min Rain = 0
KDO1 172032Z 16011KT 28/04 A2987 RMK A01 T02770042  RH  022%=      5-min Rain = 0
KDO1 172033Z 17013G18KT 28/04 A2987 RMK A01 T02770043  RH  022%=      5-min Rain = 0
KDO1 172034Z 18014G21KT 28/05 A2987 RMK A01 T02780045  RH  022%=      5-min Rain = 0
KDO1 172035Z 17013KT 28/05 A2987 RMK A01 T02790045  RH  022%=      5-min Rain = 0
KDO1 172036Z 18013KT 28/05 A2987 RMK A01 T02800045  RH  022%=      5-min Rain = 0
KDO1 172037Z 17015G20KT 28/05 A2987 RMK A01 T02780045  RH  022%=      5-min Rain = 0
KDO1 172038Z 16013KT 28/04 A2986 RMK A01 T02760044  RH  023%=      5-min Rain = 0
KDO1 172039Z 17013G19KT 28/05 A2986 RMK A01 T02750045  RH  023%=      5-min Rain = 0
KDO1 172040Z 17011KT 28/05 A2986 RMK A01 T02760047  RH  023%=      5-min Rain = 0
KDO1 172041Z 17012KT 28/05 A2986 RMK A01 T02800047  RH  023%=      5-min Rain = 0
KDO1 172042Z 17015KT 28/05 A2986 RMK A01 T02810047  RH  022%=      5-min Rain = 0
KDO1 172043Z 17016KT 28/05 A2986 RMK A01 T02800045  RH  022%=      5-min Rain = 0
KDO1 172044Z 18015G22KT 28/04 A2986 RMK A01 T02790044  RH  022%=      5-min Rain = 0
KDO1 172045Z 18018KT 28/04 A2986 RMK A01 T02780044  RH  022%=      5-min Rain = 0
KDO1 172046Z 18016KT 28/04 A2986 RMK A01 T02780043  RH  022%=      5-min Rain = 0
KDO1 172047Z 19013G18KT 28/04 A2986 RMK A01 T02770043  RH  022%=      5-min Rain = 0
KDO1 172048Z 19016KT 28/05 A2986 RMK A01 T02770045  RH  023%=      5-min Rain = 0
KDO1 172049Z 20013KT 28/04 A2986 RMK A01 T02790044  RH  022%=      5-min Rain = 0
KDO1 172050Z 19011KT 28/04 A2986 RMK A01 T02790043  RH  022%=      5-min Rain = 0
KDO1 172051Z 17009KT 28/04 A2986 RMK A01 T02780044  RH  022%=      5-min Rain = 0
KDO1 172052Z 16010G17KT 28/05 A2986 RMK A01 T02790046  RH  022%=      5-min Rain = 0
KDO1 172053Z 16011KT 28/05 A2986 RMK A01 T02810046  RH  022%=      5-min Rain = 0
KDO1 172054Z 18015G21KT 28/04 A2986 RMK A01 T02810044  RH  022%=      5-min Rain = 0
KDO1 172055Z 20013KT 28/04 A2986 RMK A01 T02810043  RH  022%=      5-min Rain = 0
KDO1 172056Z 20012KT 28/04 A2986 RMK A01 T02820044  RH  022%=      5-min Rain = 0
KDO1 172057Z 19014KT 28/04 A2986 RMK A01 T02820044  RH  022%=      5-min Rain = 0
KDO1 172058Z 17014KT 28/05 A2986 RMK A01 T02810047  RH  022%=      5-min Rain = 0
KDO1 172059Z 18013G18KT 28/05 A2986 RMK A01 T02790047  RH  023%=      5-min Rain = 0
KDO1 172100Z 18012KT 28/05 A2986 RMK A01 T02790047  RH  023%=      5-min Rain = 0
KDO1 172101Z 18015KT 28/05 A2986 RMK A01 T02800047  RH  023%=      5-min Rain = 0
KDO1 172102Z 19016KT 28/04 A2986 RMK A01 T02810043  RH  022%=      5-min Rain = 0
KDO1 172103Z 19015KT 28/04 A2986 RMK A01 T02790043  RH  022%=      5-min Rain = 0
KDO1 172104Z 18014KT 28/05 A2986 RMK A01 T02790045  RH  022%=      5-min Rain = 0
KDO1 172105Z 18016G21KT 28/05 A2986 RMK A01 T02790047  RH  023%=      5-min Rain = 0
KDO1 172106Z 19015KT 28/05 A2986 RMK A01 T02800047  RH  023%=      5-min Rain = 0
KDO1 172107Z 16013G18KT 28/05 A2986 RMK A01 T02790047  RH  023%=      5-min Rain = 0
KDO1 172108Z 17012KT 28/05 A2986 RMK A01 T02790047  RH  023%=      5-min Rain = 0
KDO1 172109Z 17010G15KT 28/05 A2986 RMK A01 T02790048  RH  023%=      5-min Rain = 0
KDO1 172110Z 18016G22KT 28/05 A2986 RMK A01 T02790047  RH  023%=      5-min Rain = 0
KDO1 172111Z 18020KT 28/05 A2986 RMK A01 T02790045  RH  023%=      5-min Rain = 0
KDO1 172112Z 18017KT 28/05 A2986 RMK A01 T02770045  RH  023%=      5-min Rain = 0
KDO1 172113Z 18015KT 28/04 A2986 RMK A01 T02750044  RH  023%=      5-min Rain = 0
KDO1 172114Z 17014KT 27/05 A2986 RMK A01 T02740046  RH  023%=      5-min Rain = 0
KDO1 172115Z 16014KT 28/05 A2986 RMK A01 T02750046  RH  023%=      5-min Rain = 0
KDO1 172116Z 17014KT 28/05 A2986 RMK A01 T02750046  RH  023%=      5-min Rain = 0
KDO1 172117Z 17012KT 27/05 A2986 RMK A01 T02740047  RH  023%=      5-min Rain = 0
KDO1 172118Z 17014KT 27/05 A2986 RMK A01 T02740047  RH  023%=      5-min Rain = 0
KDO1 172119Z 16013KT 27/05 A2986 RMK A01 T02740047  RH  023%=      5-min Rain = 0
KDO1 172120Z 17015KT 27/05 A2986 RMK A01 T02730046  RH  023%=      5-min Rain = 0
KDO1 172121Z 17014KT 27/05 A2986 RMK A01 T02730046  RH  023%=      5-min Rain = 0
KDO1 172122Z 19015KT 27/05 A2986 RMK A01 T02730046  RH  023%=      5-min Rain = 0
KDO1 172123Z 20014KT 27/05 A2986 RMK A01 T02740046  RH  023%=      5-min Rain = 0
KDO1 172124Z 18015KT 27/05 A2985 RMK A01 T02730046  RH  023%=      5-min Rain = 0
KDO1 172125Z 18014KT 27/05 A2986 RMK A01 T02730046  RH  023%=      5-min Rain = 0
KDO1 172126Z 18013KT 27/05 A2986 RMK A01 T02740046  RH  023%=      5-min Rain = 0
KDO1 172127Z 16013KT 27/05 A2985 RMK A01 T02740045  RH  023%=      5-min Rain = 0
KDO1 172128Z 16013KT 27/04 A2985 RMK A01 T02720044  RH  023%=      5-min Rain = 0
KDO1 172129Z 16015G20KT 27/04 A2985 RMK A01 T02720044  RH  023%=      5-min Rain = 0
KDO1 172130Z 17015G21KT 27/04 A2985 RMK A01 T02710043  RH  023%=      5-min Rain = 0
KDO1 172131Z 18014KT 27/04 A2985 RMK A01 T02710044  RH  023%=      5-min Rain = 0
KDO1 172132Z 18013KT 27/05 A2985 RMK A01 T02740046  RH  023%=      5-min Rain = 0
KDO1 172133Z 17014G19KT 28/05 A2985 RMK A01 T02760047  RH  023%=      5-min Rain = 0
KDO1 172134Z 17013KT 28/05 A2985 RMK A01 T02750048  RH  023%=      5-min Rain = 0
KDO1 172135Z 17011KT 28/05 A2985 RMK A01 T02750049  RH  024%=      5-min Rain = 0
KDO1 172136Z 17013KT 28/05 A2985 RMK A01 T02760049  RH  023%=      5-min Rain = 0
KDO1 172137Z 17013G18KT 28/05 A2985 RMK A01 T02770048  RH  023%=      5-min Rain = 0
KDO1 172138Z 18012KT 28/05 A2985 RMK A01 T02780049  RH  023%=      5-min Rain = 0
KDO1 172139Z 18014KT 28/05 A2985 RMK A01 T02800048  RH  023%=      5-min Rain = 0
KDO1 172140Z 17013KT 28/05 A2985 RMK A01 T02810045  RH  022%=      5-min Rain = 0
KDO1 172141Z 16014KT 28/05 A2985 RMK A01 T02800045  RH  022%=      5-min Rain = 0
KDO1 172142Z 16015KT 28/05 A2985 RMK A01 T02790045  RH  022%=      5-min Rain = 0
KDO1 172143Z 16016KT 28/05 A2984 RMK A01 T02780045  RH  023%=      5-min Rain = 0
KDO1 172144Z 17014G19KT 28/05 A2984 RMK A01 T02770045  RH  023%=      5-min Rain = 0
KDO1 172145Z 17014KT 28/05 A2984 RMK A01 T02770045  RH  023%=      5-min Rain = 0
KDO1 172146Z 16014KT 28/04 A2984 RMK A01 T02780044  RH  022%=      5-min Rain = 0
KDO1 172147Z 16013KT 28/04 A2984 RMK A01 T02780044  RH  022%=      5-min Rain = 0
KDO1 172148Z 17016G22KT 28/04 A2984 RMK A01 T02780044  RH  022%=      5-min Rain = 0
KDO1 172149Z 18014KT 28/04 A2984 RMK A01 T02770044  RH  022%=      5-min Rain = 0
KDO1 172150Z 18015KT 28/05 A2984 RMK A01 T02760045  RH  023%=      5-min Rain = 0
KDO1 172151Z 18014KT 28/05 A2985 RMK A01 T02760047  RH  023%=      5-min Rain = 0
KDO1 172152Z 19011G17KT 28/05 A2984 RMK A01 T02760048  RH  023%=      5-min Rain = 0
KDO1 172153Z 18012G17KT 28/05 A2984 RMK A01 T02760049  RH  023%=      5-min Rain = 0
KDO1 172154Z 18016KT 28/05 A2984 RMK A01 T02770046  RH  023%=      5-min Rain = 0
KDO1 172155Z 17015G22KT 28/05 A2984 RMK A01 T02770046  RH  023%=      5-min Rain = 0
KDO1 172156Z 17018KT 28/05 A2984 RMK A01 T02770046  RH  023%=      5-min Rain = 0
KDO1 172157Z 18014KT 28/05 A2984 RMK A01 T02760047  RH  023%=      5-min Rain = 0
KDO1 172158Z 16014KT 28/05 A2984 RMK A01 T02750047  RH  023%=      5-min Rain = 0
KDO1 172159Z 16015KT 28/05 A2984 RMK A01 T02750047  RH  023%=      5-min Rain = 0
KDO1 172200Z 16012KT 27/05 A2984 RMK A01 T02740046  RH  023%=      5-min Rain = 0
KDO1 172201Z 17014G19KT 27/05 A2984 RMK A01 T02740047  RH  023%=      5-min Rain = 0
KDO1 172202Z 18015KT 27/05 A2984 RMK A01 T02740045  RH  023%=      5-min Rain = 0
KDO1 172203Z 18015G20KT 27/05 A2984 RMK A01 T02740045  RH  023%=      5-min Rain = 0
KDO1 172204Z 17016KT 28/05 A2984 RMK A01 T02750046  RH  023%=      5-min Rain = 0
KDO1 172205Z 17014KT 27/05 A2984 RMK A01 T02740046  RH  023%=      5-min Rain = 0
KDO1 172206Z 16014KT 27/05 A2984 RMK A01 T02740047  RH  023%=      5-min Rain = 0
KDO1 172207Z 16015KT 27/05 A2984 RMK A01 T02740048  RH  023%=      5-min Rain = 0
KDO1 172208Z 16013KT 27/05 A2984 RMK A01 T02740048  RH  024%=      5-min Rain = 0
KDO1 172209Z 16015KT 27/05 A2984 RMK A01 T02740047  RH  024%=      5-min Rain = 0
KDO1 172210Z 16014KT 27/05 A2984 RMK A01 T02730047  RH  024%=      5-min Rain = 0
KDO1 172211Z 16013G18KT 27/05 A2984 RMK A01 T02720048  RH  024%=      5-min Rain = 0
KDO1 172212Z 15016KT 27/05 A2984 RMK A01 T02710047  RH  024%=      5-min Rain = 0
KDO1 172213Z 16013G18KT 27/05 A2984 RMK A01 T02720048  RH  024%=      5-min Rain = 0
KDO1 172214Z 17012KT 27/05 A2984 RMK A01 T02710049  RH  024%=      5-min Rain = 0
KDO1 172215Z 18015G20KT 27/05 A2984 RMK A01 T02720048  RH  024%=      5-min Rain = 0
KDO1 172216Z 18015KT 27/05 A2984 RMK A01 T02730048  RH  024%=      5-min Rain = 0
KDO1 172217Z 18016KT 27/05 A2984 RMK A01 T02720050  RH  024%=      5-min Rain = 0
KDO1 172218Z 16016KT 27/05 A2983 RMK A01 T02710049  RH  024%=      5-min Rain = 0
KDO1 172219Z 16017G22KT 27/05 A2983 RMK A01 T02700049  RH  024%=      5-min Rain = 0
KDO1 172220Z 16015G21KT 27/05 A2983 RMK A01 T02690047  RH  024%=      5-min Rain = 0
KDO1 172221Z 17016KT 27/05 A2983 RMK A01 T02690048  RH  024%=      5-min Rain = 0
KDO1 172222Z 16013KT 27/05 A2984 RMK A01 T02680048  RH  024%=      5-min Rain = 0
KDO1 172223Z 17015G21KT 27/05 A2984 RMK A01 T02680050  RH  025%=      5-min Rain = 0
KDO1 172224Z 17016G22KT 27/05 A2984 RMK A01 T02680051  RH  025%=      5-min Rain = 0
KDO1 172225Z 17015KT 27/05 A2984 RMK A01 T02680052  RH  025%=      5-min Rain = 0
KDO1 172226Z 18013KT 27/05 A2983 RMK A01 T02680052  RH  025%=      5-min Rain = 0
KDO1 172227Z 17016G21KT 27/05 A2984 RMK A01 T02680053  RH  025%=      5-min Rain = 0
KDO1 172228Z 17014KT 27/05 A2984 RMK A01 T02690054  RH  025%=      5-min Rain = 0
KDO1 172229Z 17014KT 27/06 A2984 RMK A01 T02700055  RH  025%=      5-min Rain = 0
KDO1 172230Z 17014KT 27/06 A2983 RMK A01 T02690055  RH  026%=      5-min Rain = 0
KDO1 172231Z 16011G19KT 27/06 A2984 RMK A01 T02700057  RH  026%=      5-min Rain = 0
KDO1 172232Z 15016KT 27/06 A2983 RMK A01 T02710056  RH  025%=      5-min Rain = 0
KDO1 172233Z 15016G25KT 27/06 A2983 RMK A01 T02700056  RH  026%=      5-min Rain = 0
KDO1 172234Z 15018KT 27/06 A2983 RMK A01 T02680057  RH  026%=      5-min Rain = 0
KDO1 172235Z 15016KT 27/06 A2983 RMK A01 T02680057  RH  026%=      5-min Rain = 0
KDO1 172236Z 15013KT 27/06 A2983 RMK A01 T02670057  RH  026%=      5-min Rain = 0
KDO1 172237Z 16014KT 27/06 A2983 RMK A01 T02670057  RH  026%=      5-min Rain = 0
KDO1 172238Z 16012G18KT 27/06 A2983 RMK A01 T02670058  RH  026%=      5-min Rain = 0
KDO1 172239Z 16013G18KT 27/06 A2983 RMK A01 T02670059  RH  026%=      5-min Rain = 0
KDO1 172240Z 17016KT 27/06 A2983 RMK A01 T02680059  RH  026%=      5-min Rain = 0
KDO1 172241Z 16016KT 27/06 A2983 RMK A01 T02680059  RH  026%=      5-min Rain = 0
KDO1 172242Z 16015KT 27/06 A2983 RMK A01 T02670059  RH  027%=      5-min Rain = 0
KDO1 172243Z 16017KT 27/06 A2983 RMK A01 T02660059  RH  027%=      5-min Rain = 0
KDO1 172244Z 17016KT 27/06 A2983 RMK A01 T02660059  RH  027%=      5-min Rain = 0
KDO1 172245Z 16011KT 27/06 A2983 RMK A01 T02660060  RH  027%=      5-min Rain = 0
KDO1 172246Z 15013KT 27/06 A2983 RMK A01 T02660061  RH  027%=      5-min Rain = 0
KDO1 172247Z 15012KT 27/06 A2983 RMK A01 T02660060  RH  027%=      5-min Rain = 0
KDO1 172248Z 17012G18KT 27/06 A2983 RMK A01 T02660061  RH  027%=      5-min Rain = 0
KDO1 172249Z 16014G19KT 27/06 A2983 RMK A01 T02660061  RH  027%=      5-min Rain = 0
KDO1 172250Z 16015KT 27/06 A2983 RMK A01 T02660061  RH  027%=      5-min Rain = 0
KDO1 172251Z 17016KT 27/06 A2983 RMK A01 T02660061  RH  027%=      5-min Rain = 0
KDO1 172252Z 16015KT 27/06 A2983 RMK A01 T02650061  RH  027%=      5-min Rain = 0
KDO1 172253Z 16015KT 26/06 A2983 RMK A01 T02640062  RH  027%=      5-min Rain = 0
KDO1 172254Z 17010KT 26/06 A2983 RMK A01 T02640062  RH  027%=      5-min Rain = 0
KDO1 172255Z 17014KT 26/06 A2983 RMK A01 T02640061  RH  027%=      5-min Rain = 0
KDO1 172256Z 17013G18KT 26/06 A2983 RMK A01 T02640060  RH  027%=      5-min Rain = 0
KDO1 172257Z 17012G18KT 26/06 A2983 RMK A01 T02640060  RH  027%=      5-min Rain = 0
KDO1 172258Z 17015KT 26/06 A2983 RMK A01 T02640061  RH  027%=      5-min Rain = 0
KDO1 172259Z 17013KT 26/06 A2983 RMK A01 T02630061  RH  027%=      5-min Rain = 0
KDO1 172300Z 15014KT 26/06 A2983 RMK A01 T02640061  RH  027%=      5-min Rain = 0
KDO1 172301Z 17012G17KT 26/06 A2983 RMK A01 T02630061  RH  027%=      5-min Rain = 0
KDO1 172302Z 16013KT 26/06 A2983 RMK A01 T02630061  RH  028%=      5-min Rain = 0
KDO1 172303Z 17016KT 26/06 A2983 RMK A01 T02630061  RH  028%=      5-min Rain = 0
KDO1 172304Z 16016KT 26/06 A2983 RMK A01 T02620060  RH  028%=      5-min Rain = 0
KDO1 172305Z 17013KT 26/06 A2983 RMK A01 T02610061  RH  028%=      5-min Rain = 0
KDO1 172306Z 17013KT 26/06 A2983 RMK A01 T02600061  RH  028%=      5-min Rain = 0
KDO1 172307Z 16013KT 26/06 A2983 RMK A01 T02600061  RH  028%=      5-min Rain = 0
KDO1 172308Z 16015KT 26/06 A2983 RMK A01 T02590061  RH  028%=      5-min Rain = 0
KDO1 172309Z 17014KT 26/06 A2983 RMK A01 T02590060  RH  028%=      5-min Rain = 0
KDO1 172310Z 15014G22KT 26/06 A2983 RMK A01 T02580060  RH  028%=      5-min Rain = 0
KDO1 172311Z 16017KT 26/06 A2983 RMK A01 T02570059  RH  028%=      5-min Rain = 0
KDO1 172312Z 17015G20KT 26/06 A2983 RMK A01 T02570059  RH  028%=      5-min Rain = 0
KDO1 172313Z 17011G16KT 26/06 A2983 RMK A01 T02560059  RH  028%=      5-min Rain = 0
KDO1 172314Z 17013KT 26/06 A2983 RMK A01 T02560059  RH  028%=      5-min Rain = 0
KDO1 172315Z 16014G19KT 26/06 A2983 RMK A01 T02550060  RH  029%=      5-min Rain = 0
KDO1 172316Z 16014G19KT 25/06 A2983 RMK A01 T02540059  RH  029%=      5-min Rain = 0
KDO1 172317Z 16012KT 25/06 A2983 RMK A01 T02540059  RH  029%=      5-min Rain = 0
KDO1 172318Z 17012KT 25/06 A2983 RMK A01 T02530059  RH  029%=      5-min Rain = 0
KDO1 172319Z 16011KT 25/06 A2983 RMK A01 T02520059  RH  029%=      5-min Rain = 0
KDO1 172320Z 15011KT 25/06 A2983 RMK A01 T02510060  RH  029%=      5-min Rain = 0
KDO1 172321Z 16012G17KT 25/06 A2983 RMK A01 T02500060  RH  029%=      5-min Rain = 0
KDO1 172322Z 15011KT 25/06 A2983 RMK A01 T02500061  RH  030%=      5-min Rain = 0
KDO1 172323Z 16013KT 25/06 A2983 RMK A01 T02490061  RH  030%=      5-min Rain = 0
KDO1 172324Z 16011KT 25/06 A2983 RMK A01 T02480061  RH  030%=      5-min Rain = 0
KDO1 172325Z 16012KT 25/06 A2983 RMK A01 T02480061  RH  030%=      5-min Rain = 0
KDO1 172326Z 15012KT 25/06 A2983 RMK A01 T02470060  RH  030%=      5-min Rain = 0
KDO1 172327Z 16011KT 25/06 A2983 RMK A01 T02460061  RH  030%=      5-min Rain = 0
KDO1 172328Z 15012KT 25/06 A2983 RMK A01 T02460061  RH  030%=      5-min Rain = 0
KDO1 172329Z 15012G18KT 25/06 A2983 RMK A01 T02450061  RH  031%=      5-min Rain = 0
KDO1 172330Z 15011KT 25/06 A2983 RMK A01 T02450061  RH  031%=      5-min Rain = 0
KDO1 172331Z 15012KT 25/06 A2983 RMK A01 T02450061  RH  031%=      5-min Rain = 0
KDO1 172332Z 15011KT 24/06 A2983 RMK A01 T02440061  RH  031%=      5-min Rain = 0
KDO1 172333Z 15013KT 24/06 A2983 RMK A01 T02430061  RH  031%=      5-min Rain = 0
KDO1 172334Z 15010KT 24/06 A2983 RMK A01 T02430061  RH  031%=      5-min Rain = 0
KDO1 172335Z 15009KT 24/06 A2983 RMK A01 T02420061  RH  031%=      5-min Rain = 0
KDO1 172336Z 15011KT 24/06 A2983 RMK A01 T02410061  RH  031%=      5-min Rain = 0
KDO1 172337Z 15011KT 24/06 A2983 RMK A01 T02400061  RH  032%=      5-min Rain = 0
KDO1 172338Z 15010KT 24/06 A2983 RMK A01 T02400061  RH  032%=      5-min Rain = 0
KDO1 172339Z 15009G14KT 24/06 A2983 RMK A01 T02400062  RH  032%=      5-min Rain = 0
KDO1 172340Z 15010KT 24/06 A2983 RMK A01 T02390061  RH  032%=      5-min Rain = 0
KDO1 172341Z 15011KT 24/06 A2983 RMK A01 T02380061  RH  032%=      5-min Rain = 0
KDO1 172342Z 16012KT 24/06 A2983 RMK A01 T02370061  RH  032%=      5-min Rain = 0
KDO1 172343Z 15012KT 24/06 A2983 RMK A01 T02370061  RH  032%=      5-min Rain = 0
KDO1 172344Z 15012KT 24/06 A2983 RMK A01 T02370061  RH  032%=      5-min Rain = 0
KDO1 172345Z 16011G16KT 24/06 A2983 RMK A01 T02370061  RH  032%=      5-min Rain = 0
KDO1 172346Z 15012KT 24/06 A2983 RMK A01 T02370061  RH  032%=      5-min Rain = 0
KDO1 172347Z 15011KT 24/06 A2983 RMK A01 T02360061  RH  032%=      5-min Rain = 0
KDO1 172348Z 15011KT 24/06 A2983 RMK A01 T02360060  RH  032%=      5-min Rain = 0
KDO1 172349Z 15012KT 24/06 A2983 RMK A01 T02350060  RH  032%=      5-min Rain = 0
KDO1 172350Z 15011KT 24/06 A2983 RMK A01 T02350060  RH  032%=      5-min Rain = 0
KDO1 172351Z 15011KT 23/06 A2983 RMK A01 T02340059  RH  032%=      5-min Rain = 0
KDO1 172352Z 15013KT 23/06 A2983 RMK A01 T02340059  RH  032%=      5-min Rain = 0
KDO1 172353Z 15011KT 23/06 A2983 RMK A01 T02340059  RH  032%=      5-min Rain = 0
KDO1 172354Z 14010KT 23/06 A2983 RMK A01 T02330059  RH  032%=      5-min Rain = 0
KDO1 172355Z 15010G15KT 23/06 A2983 RMK A01 T02330059  RH  033%=      5-min Rain = 0
KDO1 172356Z 15014KT 23/06 A2982 RMK A01 T02320059  RH  033%=      5-min Rain = 0
KDO1 172357Z 15012KT 23/06 A2982 RMK A01 T02310058  RH  033%=      5-min Rain = 0
KDO1 172358Z 15013KT 23/06 A2982 RMK A01 T02310058  RH  033%=      5-min Rain = 0
KDO1 172359Z 15011KT 23/06 A2982 RMK A01 T02310058  RH  033%=      5-min Rain = 0
KDO1 180000Z 15010KT 23/06 A2982 RMK A01 T02300058  RH  033%=      5-min Rain = 0
KDO1 180001Z 15010KT 23/06 A2982 RMK A01 T02300058  RH  033%=      5-min Rain = 0
KDO1 180002Z 15012KT 23/06 A2982 RMK A01 T02290058  RH  033%=      5-min Rain = 0
KDO1 180003Z 15011KT 23/06 A2982 RMK A01 T02290058  RH  033%=      5-min Rain = 0
KDO1 180004Z 15012KT 23/06 A2982 RMK A01 T02280058  RH  033%=      5-min Rain = 0
KDO1 180005Z 15011KT 23/06 A2982 RMK A01 T02280058  RH  033%=      5-min Rain = 0
KDO1 180006Z 15010G15KT 23/06 A2983 RMK A01 T02280057  RH  033%=      5-min Rain = 0
KDO1 180007Z 15009KT 23/06 A2983 RMK A01 T02270057  RH  033%=      5-min Rain = 0
KDO1 180008Z 15009KT 23/06 A2983 RMK A01 T02260057  RH  033%=      5-min Rain = 0
KDO1 180009Z 15012KT 23/06 A2983 RMK A01 T02260057  RH  033%=      5-min Rain = 0
KDO1 180010Z 15010KT 23/06 A2983 RMK A01 T02250057  RH  033%=      5-min Rain = 0
KDO1 180011Z 15010KT 23/06 A2983 RMK A01 T02250056  RH  034%=      5-min Rain = 0
KDO1 180012Z 15010KT 22/06 A2983 RMK A01 T02240056  RH  034%=      5-min Rain = 0
KDO1 180013Z 15009KT 22/06 A2983 RMK A01 T02240056  RH  034%=      5-min Rain = 0
KDO1 180014Z 15009KT 22/06 A2983 RMK A01 T02230056  RH  034%=      5-min Rain = 0
KDO1 180015Z 15011KT 22/06 A2983 RMK A01 T02230056  RH  034%=      5-min Rain = 0
KDO1 180016Z 15012KT 22/06 A2983 RMK A01 T02220055  RH  034%=      5-min Rain = 0
KDO1 180017Z 15011KT 22/06 A2983 RMK A01 T02230055  RH  034%=      5-min Rain = 0
KDO1 180018Z 15010KT 22/06 A2983 RMK A01 T02230055  RH  034%=      5-min Rain = 0
KDO1 180019Z 15010KT 22/06 A2983 RMK A01 T02230055  RH  034%=      5-min Rain = 0
KDO1 180020Z 15010KT 22/06 A2983 RMK A01 T02230055  RH  034%=      5-min Rain = 0
KDO1 180021Z 15010KT 22/06 A2983 RMK A01 T02220055  RH  034%=      5-min Rain = 0
KDO1 180022Z 15009KT 22/06 A2983 RMK A01 T02210055  RH  034%=      5-min Rain = 0
KDO1 180023Z 15010KT 22/06 A2983 RMK A01 T02200055  RH  034%=      5-min Rain = 0
KDO1 180024Z 15010KT 22/06 A2983 RMK A01 T02200055  RH  034%=      5-min Rain = 0
KDO1 180025Z 15009KT 22/05 A2983 RMK A01 T02200054  RH  034%=      5-min Rain = 0
KDO1 180026Z 15010G15KT 22/05 A2983 RMK A01 T02190054  RH  034%=      5-min Rain = 0
KDO1 180027Z 15011KT 22/05 A2983 RMK A01 T02190054  RH  034%=      5-min Rain = 0
KDO1 180028Z 15010KT 22/05 A2983 RMK A01 T02190054  RH  034%=      5-min Rain = 0
KDO1 180029Z 15010KT 22/05 A2983 RMK A01 T02190053  RH  034%=      5-min Rain = 0
KDO1 180030Z 15010KT 22/05 A2983 RMK A01 T02190053  RH  034%=      5-min Rain = 0
KDO1 180031Z 15010KT 22/05 A2983 RMK A01 T02180053  RH  034%=      5-min Rain = 0
KDO1 180032Z 15010G15KT 22/05 A2983 RMK A01 T02180052  RH  034%=      5-min Rain = 0
KDO1 180033Z 15010KT 22/05 A2983 RMK A01 T02170052  RH  034%=      5-min Rain = 0
KDO1 180034Z 15011KT 22/05 A2983 RMK A01 T02170051  RH  034%=      5-min Rain = 0
KDO1 180035Z 15011KT 22/05 A2983 RMK A01 T02170050  RH  034%=      5-min Rain = 0
KDO1 180036Z 15011KT 22/05 A2983 RMK A01 T02170049  RH  034%=      5-min Rain = 0
KDO1 180037Z 15009KT 22/05 A2983 RMK A01 T02170049  RH  033%=      5-min Rain = 0
KDO1 180038Z 15010KT 22/05 A2983 RMK A01 T02170049  RH  034%=      5-min Rain = 0
KDO1 180039Z 15011KT 22/05 A2983 RMK A01 T02160049  RH  033%=      5-min Rain = 0
KDO1 180040Z 15010KT 22/05 A2983 RMK A01 T02160048  RH  033%=      5-min Rain = 0
KDO1 180041Z 15011KT 22/05 A2983 RMK A01 T02150047  RH  033%=      5-min Rain = 0
KDO1 180042Z 15010KT 22/05 A2983 RMK A01 T02160047  RH  033%=      5-min Rain = 0
KDO1 180043Z 15010KT 22/05 A2983 RMK A01 T02150046  RH  033%=      5-min Rain = 0
KDO1 180044Z 15009KT 22/05 A2983 RMK A01 T02150046  RH  033%=      5-min Rain = 0
KDO1 180045Z 15010KT 21/05 A2983 RMK A01 T02140046  RH  033%=      5-min Rain = 0
KDO1 180046Z 15009KT 21/05 A2983 RMK A01 T02140046  RH  033%=      5-min Rain = 0
KDO1 180047Z 15011KT 21/05 A2983 RMK A01 T02140045  RH  033%=      5-min Rain = 0
KDO1 180048Z 15010KT 21/05 A2983 RMK A01 T02130045  RH  033%=      5-min Rain = 0
KDO1 180049Z 15010KT 21/05 A2983 RMK A01 T02140045  RH  033%=      5-min Rain = 0
KDO1 180050Z 15011KT 21/05 A2983 RMK A01 T02130045  RH  033%=      5-min Rain = 0
KDO1 180051Z 15010KT 21/05 A2983 RMK A01 T02130045  RH  033%=      5-min Rain = 0
KDO1 180052Z 15010KT 21/04 A2983 RMK A01 T02130044  RH  033%=      5-min Rain = 0
KDO1 180053Z 15010KT 21/04 A2983 RMK A01 T02120044  RH  033%=      5-min Rain = 0
KDO1 180054Z 15011KT 21/04 A2983 RMK A01 T02120044  RH  033%=      5-min Rain = 0
KDO1 180055Z 15009KT 21/04 A2983 RMK A01 T02110044  RH  033%=      5-min Rain = 0
KDO1 180056Z 15010KT 21/04 A2983 RMK A01 T02110043  RH  033%=      5-min Rain = 0
KDO1 180057Z 16010KT 21/04 A2983 RMK A01 T02100043  RH  033%=      5-min Rain = 0
KDO1 180058Z 14010KT 21/04 A2983 RMK A01 T02100042  RH  033%=      5-min Rain = 0
KDO1 180059Z 15011KT 21/04 A2983 RMK A01 T02100041  RH  033%=      5-min Rain = 0
KDO1 180100Z 15011KT 21/04 A2983 RMK A01 T02100039  RH  033%=      5-min Rain = 0
KDO1 180101Z 15011KT 21/04 A2983 RMK A01 T02100039  RH  032%=      5-min Rain = 0
KDO1 180102Z 15010KT 21/04 A2983 RMK A01 T02100038  RH  032%=      5-min Rain = 0
KDO1 180103Z 15011KT 21/04 A2983 RMK A01 T02100036  RH  032%=      5-min Rain = 0
KDO1 180104Z 15010KT 21/04 A2983 RMK A01 T02100036  RH  032%=      5-min Rain = 0
KDO1 180105Z 15012KT 21/04 A2983 RMK A01 T02100035  RH  032%=      5-min Rain = 0
KDO1 180106Z 15010KT 21/03 A2983 RMK A01 T02090033  RH  031%=      5-min Rain = 0
KDO1 180107Z 16011KT 21/03 A2983 RMK A01 T02100033  RH  031%=      5-min Rain = 0
KDO1 180108Z 15012KT 21/03 A2983 RMK A01 T02090032  RH  031%=      5-min Rain = 0
KDO1 180109Z 15012KT 21/03 A2983 RMK A01 T02090031  RH  031%=      5-min Rain = 0
KDO1 180110Z 15012KT 21/03 A2983 RMK A01 T02100030  RH  030%=      5-min Rain = 0
KDO1 180111Z 15011KT 21/03 A2983 RMK A01 T02100030  RH  030%=      5-min Rain = 0
KDO1 180112Z 15010G15KT 21/03 A2983 RMK A01 T02090030  RH  031%=      5-min Rain = 0
KDO1 180113Z 15011KT 21/03 A2983 RMK A01 T02090029  RH  030%=      5-min Rain = 0
KDO1 180114Z 15012KT 21/03 A2983 RMK A01 T02090028  RH  030%=      5-min Rain = 0
KDO1 180115Z 15012KT 21/03 A2983 RMK A01 T02090028  RH  030%=      5-min Rain = 0
KDO1 180116Z 15011KT 21/03 A2983 RMK A01 T02080027  RH  030%=      5-min Rain = 0
KDO1 180117Z 15012KT 21/03 A2983 RMK A01 T02080026  RH  030%=      5-min Rain = 0
KDO1 180118Z 15011KT 21/03 A2983 RMK A01 T02080025  RH  030%=      5-min Rain = 0
KDO1 180119Z 15011KT 21/02 A2983 RMK A01 T02070024  RH  030%=      5-min Rain = 0
KDO1 180120Z 15010KT 21/02 A2983 RMK A01 T02070024  RH  030%=      5-min Rain = 0
KDO1 180121Z 15011KT 21/02 A2983 RMK A01 T02070023  RH  030%=      5-min Rain = 0
KDO1 180122Z 15010KT 21/02 A2983 RMK A01 T02060022  RH  030%=      5-min Rain = 0
KDO1 180123Z 15010KT 21/02 A2983 RMK A01 T02060022  RH  030%=      5-min Rain = 0
KDO1 180124Z 14010KT 21/02 A2983 RMK A01 T02050021  RH  029%=      5-min Rain = 0
KDO1 180125Z 15012KT 21/02 A2983 RMK A01 T02050020  RH  029%=      5-min Rain = 0
KDO1 180126Z 15011G18KT 21/02 A2983 RMK A01 T02050019  RH  029%=      5-min Rain = 0
KDO1 180127Z 15014KT 21/02 A2983 RMK A01 T02050017  RH  029%=      5-min Rain = 0
KDO1 180128Z 15012KT 21/02 A2983 RMK A01 T02060015  RH  028%=      5-min Rain = 0
KDO1 180129Z 15011KT 21/02 A2983 RMK A01 T02060015  RH  028%=      5-min Rain = 0
KDO1 180130Z 15012KT 21/01 A2983 RMK A01 T02060014  RH  028%=      5-min Rain = 0
KDO1 180131Z 15014KT 21/01 A2983 RMK A01 T02050012  RH  028%=      5-min Rain = 0
KDO1 180132Z 15013KT 21/01 A2983 RMK A01 T02050011  RH  027%=      5-min Rain = 0
KDO1 180133Z 15011KT 21/01 A2983 RMK A01 T02060011  RH  027%=      5-min Rain = 0
KDO1 180134Z 15011KT 21/01 A2983 RMK A01 T02050011  RH  027%=      5-min Rain = 0
KDO1 180135Z 15013KT 20/01 A2983 RMK A01 T02040010  RH  027%=      5-min Rain = 0
KDO1 180136Z 15012KT 20/01 A2983 RMK A01 T02040009  RH  027%=      5-min Rain = 0
KDO1 180137Z 15012KT 20/01 A2983 RMK A01 T02040009  RH  027%=      5-min Rain = 0
KDO1 180138Z 16013KT 20/01 A2983 RMK A01 T02040008  RH  027%=      5-min Rain = 0
KDO1 180139Z 15012KT 20/01 A2983 RMK A01 T02030007  RH  027%=      5-min Rain = 0
KDO1 180140Z 15012KT 20/01 A2983 RMK A01 T02030006  RH  027%=      5-min Rain = 0
KDO1 180141Z 15012KT 20/01 A2983 RMK A01 T02020005  RH  027%=      5-min Rain = 0
KDO1 180142Z 15011KT 20/00 A2983 RMK A01 T02020004  RH  026%=      5-min Rain = 0
KDO1 180143Z 15012KT 20/00 A2983 RMK A01 T02020003  RH  026%=      5-min Rain = 0
KDO1 180144Z 15012KT 20/00 A2983 RMK A01 T02020003  RH  026%=      5-min Rain = 0
KDO1 180145Z 15011KT 20/00 A2983 RMK A01 T02020002  RH  026%=      5-min Rain = 0
KDO1 180146Z 15012KT 20/00 A2983 RMK A01 T02020002  RH  026%=      5-min Rain = 0
KDO1 180147Z 15012KT 20/00 A2983 RMK A01 T02010001  RH  026%=      5-min Rain = 0
KDO1 180148Z 15012KT 20/00 A2983 RMK A01 T02010001  RH  026%=      5-min Rain = 0
KDO1 180149Z 15013KT 20/00 A2983 RMK A01 T020100-0  RH  026%=      5-min Rain = 0
KDO1 180150Z 16012KT 20/M00 A2983 RMK A01 T02011001  RH  026%=      5-min Rain = 0
KDO1 180151Z 15012KT 20/M00 A2983 RMK A01 T02011001  RH  026%=      5-min Rain = 0
KDO1 180152Z 15012KT 20/M00 A2983 RMK A01 T02011001  RH  026%=      5-min Rain = 0
KDO1 180153Z 15011KT 20/M00 A2983 RMK A01 T02001002  RH  026%=      5-min Rain = 0
KDO1 180154Z 15012KT 20/M00 A2983 RMK A01 T02001002  RH  026%=      5-min Rain = 0
KDO1 180155Z 15012KT 20/M00 A2983 RMK A01 T02001002  RH  026%=      5-min Rain = 0
KDO1 180156Z 16013KT 20/M00 A2983 RMK A01 T02001002  RH  026%=      5-min Rain = 0
KDO1 180157Z 16012KT 20/M00 A2983 RMK A01 T02001003  RH  026%=      5-min Rain = 0
KDO1 180158Z 15013KT 20/M00 A2983 RMK A01 T02001003  RH  026%=      5-min Rain = 0
KDO1 180159Z 15011KT 20/M00 A2983 RMK A01 T02001003  RH  026%=      5-min Rain = 0
KDO1 180200Z 15010KT 20/M00 A2983 RMK A01 T01991003  RH  026%=      5-min Rain = 0
KDO1 180201Z 15013KT 20/M00 A2983 RMK A01 T01981003  RH  026%=      5-min Rain = 0
KDO1 180202Z 16011KT 20/M00 A2983 RMK A01 T01981004  RH  026%=      5-min Rain = 0
KDO1 180203Z 15012KT 20/M00 A2983 RMK A01 T01981004  RH  026%=      5-min Rain = 0
KDO1 180204Z 15013KT 20/M00 A2983 RMK A01 T01981004  RH  026%=      5-min Rain = 0
KDO1 180205Z 15012KT 20/M00 A2983 RMK A01 T01981004  RH  026%=      5-min Rain = 0
KDO1 180206Z 15013KT 20/M00 A2983 RMK A01 T01981004  RH  026%=      5-min Rain = 0
KDO1 180207Z 15014KT 20/M01 A2983 RMK A01 T01971005  RH  026%=      5-min Rain = 0
KDO1 180208Z 15013KT 20/M01 A2983 RMK A01 T01971005  RH  026%=      5-min Rain = 0
KDO1 180209Z 15010KT 20/M01 A2983 RMK A01 T01971005  RH  026%=      5-min Rain = 0
KDO1 180210Z 15014KT 20/M01 A2983 RMK A01 T01961005  RH  026%=      5-min Rain = 0
KDO1 180211Z 15012KT 20/M01 A2983 RMK A01 T01961005  RH  026%=      5-min Rain = 0
KDO1 180212Z 15010KT 20/M01 A2983 RMK A01 T01961005  RH  026%=      5-min Rain = 0
KDO1 180213Z 16009KT 20/M01 A2983 RMK A01 T01951005  RH  026%=      5-min Rain = 0
KDO1 180214Z 15011KT 19/M01 A2983 RMK A01 T01941005  RH  026%=      5-min Rain = 0
KDO1 180215Z 16012KT 19/M01 A2983 RMK A01 T01931005  RH  026%=      5-min Rain = 0
KDO1 180216Z 16012KT 19/M01 A2983 RMK A01 T01931006  RH  026%=      5-min Rain = 0
KDO1 180217Z 16010KT 19/M01 A2983 RMK A01 T01931006  RH  026%=      5-min Rain = 0
KDO1 180218Z 16012KT 19/M01 A2984 RMK A01 T01931006  RH  026%=      5-min Rain = 0
KDO1 180219Z 16012KT 19/M01 A2983 RMK A01 T01931006  RH  026%=      5-min Rain = 0
KDO1 180220Z 15010KT 19/M01 A2983 RMK A01 T01931006  RH  026%=      5-min Rain = 0
KDO1 180221Z 15012KT 19/M01 A2983 RMK A01 T01931007  RH  026%=      5-min Rain = 0
KDO1 180222Z 15011KT 19/M01 A2983 RMK A01 T01921007  RH  026%=      5-min Rain = 0
KDO1 180223Z 15009KT 19/M01 A2983 RMK A01 T01921007  RH  026%=      5-min Rain = 0
KDO1 180224Z 15012KT 19/M01 A2983 RMK A01 T01911007  RH  026%=      5-min Rain = 0
KDO1 180225Z 16010KT 19/M01 A2983 RMK A01 T01911007  RH  026%=      5-min Rain = 0
KDO1 180226Z 15011KT 19/M01 A2983 RMK A01 T01901007  RH  026%=      5-min Rain = 0
KDO1 180227Z 15011KT 19/M01 A2983 RMK A01 T01901008  RH  026%=      5-min Rain = 0
KDO1 180228Z 16012KT 19/M01 A2983 RMK A01 T01901007  RH  026%=      5-min Rain = 0
KDO1 180229Z 15010KT 19/M01 A2983 RMK A01 T01901008  RH  026%=      5-min Rain = 0
KDO1 180230Z 16012KT 19/M01 A2983 RMK A01 T01891008  RH  026%=      5-min Rain = 0
KDO1 180231Z 15010KT 19/M01 A2983 RMK A01 T01891008  RH  026%=      5-min Rain = 0
KDO1 180232Z 15012KT 19/M01 A2983 RMK A01 T01891008  RH  026%=      5-min Rain = 0
KDO1 180233Z 16009KT 19/M01 A2983 RMK A01 T01881008  RH  027%=      5-min Rain = 0
KDO1 180234Z 15009KT 19/M01 A2984 RMK A01 T01881008  RH  027%=      5-min Rain = 0
KDO1 180235Z 16009KT 19/M01 A2984 RMK A01 T01871008  RH  027%=      5-min Rain = 0
KDO1 180236Z 16009KT 19/M01 A2984 RMK A01 T01871008  RH  027%=      5-min Rain = 0
KDO1 180237Z 15009KT 19/M01 A2984 RMK A01 T01861008  RH  027%=      5-min Rain = 0
KDO1 180238Z 16009KT 19/M01 A2984 RMK A01 T01851008  RH  027%=      5-min Rain = 0
KDO1 180239Z 16008KT 19/M01 A2984 RMK A01 T01851008  RH  027%=      5-min Rain = 0
KDO1 180240Z 15010KT 19/M01 A2984 RMK A01 T01851008  RH  027%=      5-min Rain = 0
KDO1 180241Z 16009KT 19/M01 A2984 RMK A01 T01851008  RH  027%=      5-min Rain = 0
KDO1 180242Z 15010KT 19/M01 A2984 RMK A01 T01851009  RH  027%=      5-min Rain = 0
KDO1 180243Z 16009KT 18/M01 A2984 RMK A01 T01841009  RH  027%=      5-min Rain = 0
KDO1 180244Z 15008KT 18/M01 A2984 RMK A01 T01841009  RH  027%=      5-min Rain = 0
KDO1 180245Z 16009KT 18/M01 A2984 RMK A01 T01831009  RH  027%=      5-min Rain = 0
KDO1 180246Z 15010KT 18/M01 A2984 RMK A01 T01831009  RH  027%=      5-min Rain = 0
KDO1 180247Z 16011KT 18/M01 A2984 RMK A01 T01831010  RH  027%=      5-min Rain = 0
KDO1 180248Z 15009KT 18/M01 A2984 RMK A01 T01831010  RH  027%=      5-min Rain = 0
KDO1 180249Z 15009KT 18/M01 A2984 RMK A01 T01831010  RH  027%=      5-min Rain = 0
KDO1 180250Z 15009KT 18/M01 A2984 RMK A01 T01821010  RH  027%=      5-min Rain = 0
KDO1 180251Z 15010KT 18/M01 A2984 RMK A01 T01821010  RH  027%=      5-min Rain = 0
KDO1 180252Z 15008KT 18/M01 A2984 RMK A01 T01821010  RH  027%=      5-min Rain = 0
KDO1 180253Z 15009KT 18/M01 A2984 RMK A01 T01821010  RH  027%=      5-min Rain = 0
KDO1 180254Z 15009KT 18/M01 A2984 RMK A01 T01811011  RH  027%=      5-min Rain = 0
KDO1 180255Z 15009KT 18/M01 A2984 RMK A01 T01811011  RH  027%=      5-min Rain = 0
KDO1 180256Z 15008KT 18/M01 A2984 RMK A01 T01811010  RH  027%=      5-min Rain = 0
KDO1 180257Z 15009KT 18/M01 A2984 RMK A01 T01801011  RH  027%=      5-min Rain = 0
KDO1 180258Z 16009KT 18/M01 A2984 RMK A01 T01801011  RH  027%=      5-min Rain = 0
KDO1 180259Z 15010KT 18/M01 A2984 RMK A01 T01801011  RH  027%=      5-min Rain = 0
KDO1 180300Z 15010KT 18/M01 A2984 RMK A01 T01801011  RH  027%=      5-min Rain = 0
KDO1 180301Z 15009KT 18/M01 A2984 RMK A01 T01801012  RH  027%=      5-min Rain = 0
KDO1 180302Z 15009KT 18/M01 A2984 RMK A01 T01801011  RH  027%=      5-min Rain = 0
KDO1 180303Z 15009G14KT 18/M01 A2984 RMK A01 T01791011  RH  027%=      5-min Rain = 0
KDO1 180304Z 15010KT 18/M01 A2983 RMK A01 T01791012  RH  027%=      5-min Rain = 0
KDO1 180305Z 14010KT 18/M01 A2983 RMK A01 T01791012  RH  027%=      5-min Rain = 0
KDO1 180306Z 15010KT 18/M01 A2983 RMK A01 T01791012  RH  027%=      5-min Rain = 0
KDO1 180307Z 15011KT 18/M01 A2983 RMK A01 T01781012  RH  027%=      5-min Rain = 0
KDO1 180308Z 15011KT 18/M01 A2983 RMK A01 T01781012  RH  027%=      5-min Rain = 0
KDO1 180309Z 15011KT 18/M01 A2983 RMK A01 T01781012  RH  027%=      5-min Rain = 0
KDO1 180310Z 15013KT 18/M01 A2983 RMK A01 T01781013  RH  027%=      5-min Rain = 0
KDO1 180311Z 14014KT 18/M01 A2983 RMK A01 T01781014  RH  027%=      5-min Rain = 0
KDO1 180312Z 15012KT 18/M02 A2983 RMK A01 T01791015  RH  027%=      5-min Rain = 0
KDO1 180313Z 14013KT 18/M02 A2983 RMK A01 T01791015  RH  027%=      5-min Rain = 0
KDO1 180314Z 15014KT 18/M02 A2983 RMK A01 T01791015  RH  027%=      5-min Rain = 0
KDO1 180315Z 15011KT 18/M02 A2983 RMK A01 T01801015  RH  027%=      5-min Rain = 0
KDO1 180316Z 14014KT 18/M02 A2983 RMK A01 T01801015  RH  027%=      5-min Rain = 0
KDO1 180317Z 14013KT 18/M02 A2983 RMK A01 T01801015  RH  027%=      5-min Rain = 0
KDO1 180318Z 14012KT 18/M02 A2983 RMK A01 T01801015  RH  027%=      5-min Rain = 0
KDO1 180319Z 14012KT 18/M02 A2983 RMK A01 T01801015  RH  027%=      5-min Rain = 0
KDO1 180320Z 14011KT 18/M02 A2983 RMK A01 T01801015  RH  027%=      5-min Rain = 0
KDO1 180321Z 14012KT 18/M02 A2983 RMK A01 T01801015  RH  027%=      5-min Rain = 0
KDO1 180322Z 14012KT 18/M02 A2983 RMK A01 T01791015  RH  027%=      5-min Rain = 0
KDO1 180323Z 14011KT 18/M02 A2983 RMK A01 T01791015  RH  027%=      5-min Rain = 0
KDO1 180324Z 14011G16KT 18/M02 A2983 RMK A01 T01791015  RH  027%=      5-min Rain = 0
KDO1 180325Z 15010KT 18/M02 A2983 RMK A01 T01781015  RH  027%=      5-min Rain = 0
KDO1 180326Z 15010KT 18/M02 A2983 RMK A01 T01781015  RH  027%=      5-min Rain = 0
KDO1 180327Z 15008KT 18/M02 A2983 RMK A01 T01781015  RH  027%=      5-min Rain = 0
KDO1 180328Z 15006G11KT 18/M02 A2984 RMK A01 T01771015  RH  027%=      5-min Rain = 0
KDO1 180329Z 15007KT 18/M02 A2984 RMK A01 T01771015  RH  027%=      5-min Rain = 0
KDO1 180330Z 15008KT 18/M02 A2984 RMK A01 T01761015  RH  027%=      5-min Rain = 0
KDO1 180331Z 16007KT 18/M02 A2984 RMK A01 T01761015  RH  027%=      5-min Rain = 0
KDO1 180332Z 15007KT 18/M02 A2984 RMK A01 T01761015  RH  027%=      5-min Rain = 0
KDO1 180333Z 15006KT 18/M02 A2984 RMK A01 T01761015  RH  027%=      5-min Rain = 0
KDO1 180334Z 16006KT 18/M02 A2984 RMK A01 T01751015  RH  027%=      5-min Rain = 0
KDO1 180335Z 15005KT 18/M02 A2984 RMK A01 T01751015  RH  028%=      5-min Rain = 0
KDO1 180336Z 15005KT 18/M01 A2984 RMK A01 T01751014  RH  028%=      5-min Rain = 0
KDO1 180337Z 15008KT 17/M01 A2985 RMK A01 T01741014  RH  028%=      5-min Rain = 0
KDO1 180338Z 16005KT 17/M01 A2985 RMK A01 T01741014  RH  028%=      5-min Rain = 0
KDO1 180339Z 15007KT 17/M01 A2985 RMK A01 T01741014  RH  028%=      5-min Rain = 0
KDO1 180340Z 14006KT 17/M01 A2985 RMK A01 T01741014  RH  028%=      5-min Rain = 0
KDO1 180341Z 15006KT 17/M01 A2985 RMK A01 T01731014  RH  028%=      5-min Rain = 0
KDO1 180342Z 15011KT 17/M01 A2985 RMK A01 T01731014  RH  028%=      5-min Rain = 0
KDO1 180343Z 15008KT 17/M01 A2985 RMK A01 T01731014  RH  028%=      5-min Rain = 0
KDO1 180344Z 15010G15KT 17/M01 A2984 RMK A01 T01731013  RH  028%=      5-min Rain = 0
KDO1 180345Z 15009KT 17/M01 A2985 RMK A01 T01731014  RH  028%=      5-min Rain = 0
KDO1 180346Z 15008KT 17/M01 A2985 RMK A01 T01731014  RH  028%=      5-min Rain = 0
KDO1 180347Z 15009KT 17/M01 A2985 RMK A01 T01741013  RH  028%=      5-min Rain = 0
KDO1 180348Z 15009KT 17/M01 A2985 RMK A01 T01741013  RH  028%=      5-min Rain = 0
KDO1 180349Z 15009KT 17/M01 A2985 RMK A01 T01741013  RH  028%=      5-min Rain = 0
KDO1 180350Z 16006KT 17/M01 A2985 RMK A01 T01741012  RH  028%=      5-min Rain = 0
KDO1 180351Z 15007KT 17/M01 A2985 RMK A01 T01731012  RH  028%=      5-min Rain = 0
KDO1 180352Z 15008KT 17/M01 A2985 RMK A01 T01721012  RH  029%=      5-min Rain = 0
KDO1 180353Z 15009KT 17/M01 A2985 RMK A01 T01721011  RH  029%=      5-min Rain = 0
KDO1 180354Z 15008KT 17/M01 A2985 RMK A01 T01721011  RH  029%=      5-min Rain = 0
KDO1 180355Z 15007KT 17/M01 A2985 RMK A01 T01721011  RH  029%=      5-min Rain = 0
KDO1 180356Z 15007KT 17/M01 A2985 RMK A01 T01711011  RH  029%=      5-min Rain = 0
KDO1 180357Z 16007KT 17/M01 A2985 RMK A01 T01711011  RH  029%=      5-min Rain = 0
KDO1 180358Z 16009KT 17/M01 A2985 RMK A01 T01701011  RH  029%=      5-min Rain = 0
KDO1 180359Z 15007KT 17/M01 A2985 RMK A01 T01711011  RH  029%=      5-min Rain = 0
KDO1 180400Z 15008KT 17/M01 A2985 RMK A01 T01701011  RH  029%=      5-min Rain = 0
KDO1 180401Z 16009KT 17/M01 A2985 RMK A01 T01701011  RH  029%=      5-min Rain = 0
KDO1 180402Z 15007KT 17/M01 A2985 RMK A01 T01701010  RH  029%=      5-min Rain = 0
KDO1 180403Z 16008KT 17/M01 A2985 RMK A01 T01701010  RH  029%=      5-min Rain = 0
KDO1 180404Z 16008KT 17/M01 A2985 RMK A01 T01691010  RH  029%=      5-min Rain = 0
KDO1 180405Z 15008KT 17/M01 A2985 RMK A01 T01691010  RH  029%=      5-min Rain = 0
KDO1 180406Z 16008KT 17/M01 A2985 RMK A01 T01691010  RH  030%=      5-min Rain = 0
KDO1 180407Z 15009KT 17/M01 A2984 RMK A01 T01691010  RH  030%=      5-min Rain = 0
KDO1 180408Z 16008KT 17/M01 A2984 RMK A01 T01691010  RH  030%=      5-min Rain = 0
KDO1 180409Z 15008KT 17/M01 A2985 RMK A01 T01691010  RH  030%=      5-min Rain = 0
KDO1 180410Z 16008KT 17/M01 A2985 RMK A01 T01691009  RH  030%=      5-min Rain = 0
KDO1 180411Z 15008KT 17/M01 A2985 RMK A01 T01681009  RH  030%=      5-min Rain = 0
KDO1 180412Z 16007KT 17/M01 A2985 RMK A01 T01681009  RH  030%=      5-min Rain = 0
KDO1 180413Z 15007KT 17/M01 A2985 RMK A01 T01681009  RH  030%=      5-min Rain = 0
KDO1 180414Z 15008KT 17/M01 A2985 RMK A01 T01671009  RH  030%=      5-min Rain = 0
KDO1 180415Z 16009KT 17/M01 A2985 RMK A01 T01661009  RH  030%=      5-min Rain = 0
KDO1 180416Z 16007KT 17/M01 A2985 RMK A01 T01661009  RH  030%=      5-min Rain = 0
KDO1 180417Z 16008KT 17/M01 A2985 RMK A01 T01661009  RH  030%=      5-min Rain = 0
KDO1 180418Z 16008KT 17/M01 A2985 RMK A01 T01661009  RH  030%=      5-min Rain = 0
KDO1 180419Z 16006KT 17/M01 A2985 RMK A01 T01671008  RH  030%=      5-min Rain = 0
KDO1 180420Z 16007KT 17/M01 A2985 RMK A01 T01661008  RH  030%=      5-min Rain = 0
KDO1 180421Z 16007KT 17/M01 A2985 RMK A01 T01651008  RH  031%=      5-min Rain = 0
KDO1 180422Z 16007KT 17/M01 A2985 RMK A01 T01651008  RH  031%=      5-min Rain = 0
KDO1 180423Z 16008KT 17/M01 A2985 RMK A01 T01651008  RH  031%=      5-min Rain = 0
KDO1 180424Z 16007KT 17/M01 A2985 RMK A01 T01651008  RH  031%=      5-min Rain = 0
KDO1 180425Z 16006KT 16/M01 A2985 RMK A01 T01641008  RH  031%=      5-min Rain = 0
KDO1 180426Z 16006KT 16/M01 A2985 RMK A01 T01631008  RH  031%=      5-min Rain = 0
KDO1 180427Z 16006KT 16/M01 A2985 RMK A01 T01621008  RH  031%=      5-min Rain = 0
KDO1 180428Z 16005KT 16/M01 A2985 RMK A01 T01611008  RH  032%=      5-min Rain = 0
KDO1 180429Z 16006KT 16/M01 A2985 RMK A01 T01611008  RH  032%=      5-min Rain = 0
KDO1 180430Z 16006KT 16/M01 A2985 RMK A01 T01601008  RH  032%=      5-min Rain = 0
KDO1 180431Z 16006KT 16/M01 A2985 RMK A01 T01601008  RH  032%=      5-min Rain = 0
KDO1 180432Z 16007KT 16/M01 A2985 RMK A01 T01601007  RH  032%=      5-min Rain = 0
KDO1 180433Z 16007KT 16/M01 A2985 RMK A01 T01601007  RH  032%=      5-min Rain = 0
KDO1 180434Z 16007KT 16/M01 A2985 RMK A01 T01601006  RH  032%=      5-min Rain = 0
KDO1 180435Z 16008KT 16/M01 A2985 RMK A01 T01601006  RH  032%=      5-min Rain = 0
KDO1 180436Z 16007KT 16/M01 A2985 RMK A01 T01601006  RH  032%=      5-min Rain = 0
KDO1 180437Z 16008KT 16/M01 A2985 RMK A01 T01611006  RH  032%=      5-min Rain = 0
KDO1 180438Z 16007KT 16/M01 A2985 RMK A01 T01601006  RH  032%=      5-min Rain = 0
KDO1 180439Z 16006KT 16/M01 A2985 RMK A01 T01601005  RH  032%=      5-min Rain = 0
KDO1 180440Z 16007KT 16/M01 A2985 RMK A01 T01601005  RH  032%=      5-min Rain = 0
KDO1 180441Z 16007KT 16/M01 A2985 RMK A01 T01601005  RH  032%=      5-min Rain = 0
KDO1 180442Z 16007KT 16/M01 A2985 RMK A01 T01601005  RH  033%=      5-min Rain = 0
KDO1 180443Z 16006KT 16/M01 A2985 RMK A01 T01591005  RH  033%=      5-min Rain = 0
KDO1 180444Z 16007KT 16/M01 A2985 RMK A01 T01591005  RH  033%=      5-min Rain = 0
KDO1 180445Z 16007KT 16/M00 A2985 RMK A01 T01591004  RH  033%=      5-min Rain = 0
KDO1 180446Z 15008KT 16/M00 A2985 RMK A01 T01581004  RH  033%=      5-min Rain = 0
KDO1 180447Z 16007KT 16/M00 A2985 RMK A01 T01581004  RH  033%=      5-min Rain = 0
KDO1 180448Z 15007KT 16/M00 A2985 RMK A01 T01581004  RH  033%=      5-min Rain = 0
KDO1 180449Z 16008KT 16/M00 A2985 RMK A01 T01581004  RH  033%=      5-min Rain = 0
KDO1 180450Z 15007KT 16/M00 A2984 RMK A01 T01581003  RH  033%=      5-min Rain = 0
KDO1 180451Z 15008KT 16/M00 A2984 RMK A01 T01571003  RH  033%=      5-min Rain = 0
KDO1 180452Z 15007KT 16/M00 A2984 RMK A01 T01571002  RH  034%=      5-min Rain = 0
KDO1 180453Z 15006KT 16/M00 A2984 RMK A01 T01571003  RH  034%=      5-min Rain = 0
KDO1 180454Z 15007KT 16/M00 A2984 RMK A01 T01571002  RH  034%=      5-min Rain = 0
KDO1 180455Z 14007KT 16/M00 A2984 RMK A01 T01561002  RH  034%=      5-min Rain = 0
KDO1 180456Z 15007KT 16/M00 A2984 RMK A01 T01561002  RH  034%=      5-min Rain = 0
KDO1 180457Z 15008KT 16/M00 A2984 RMK A01 T01561002  RH  034%=      5-min Rain = 0
KDO1 180458Z 14008KT 16/M00 A2984 RMK A01 T01551002  RH  034%=      5-min Rain = 0
KDO1 180459Z 15008KT 16/M00 A2984 RMK A01 T01551001  RH  034%=      5-min Rain = 0

Page generated in 0.0844 seconds.